<?xml version="1.0" encoding="UTF-8" standalone="no" ?>
<gpx xmlns="http://www.topografix.com/GPX/1/1" xmlns:xsi="http://www.w3.org/2001/XMLSchema-instance" xsi:schemaLocation="http://www.topografix.com/GPX/1/1 http://www.topografix.com/GPX/1/1/gpx.xsd" version="1.1" creator="VisuGPX - https://www.visugpx.com">
  <metadata>
    <name>Circuits dans le massif du Pilat</name>
    <desc><![CDATA[Circuit au départ de la croix de Chaubouret sur les pistes forestières]]></desc>
  </metadata>
  <trk>
    <name><![CDATA[20181022153513-ZtXBC]]></name>
    <trkseg>
      <trkpt lat="45.36824" lon="4.52781">
        <ele>1205.63</ele>
        <time>2018-07-26T06:34:07Z</time>
      </trkpt>
      <trkpt lat="45.36824" lon="4.52782">
        <ele>1205.63</ele>
        <time>2018-07-26T06:34:08Z</time>
      </trkpt>
      <trkpt lat="45.36824" lon="4.52781">
        <ele>1200.82</ele>
        <time>2018-07-26T06:34:11Z</time>
      </trkpt>
      <trkpt lat="45.36824" lon="4.52781">
        <ele>1200.82</ele>
        <time>2018-07-26T06:34:12Z</time>
      </trkpt>
      <trkpt lat="45.36823" lon="4.52783">
        <ele>1200.82</ele>
        <time>2018-07-26T06:34:30Z</time>
      </trkpt>
      <trkpt lat="45.3682" lon="4.52788">
        <ele>1200.82</ele>
        <time>2018-07-26T06:34:34Z</time>
      </trkpt>
      <trkpt lat="45.36816" lon="4.52802">
        <ele>1200.82</ele>
        <time>2018-07-26T06:34:51Z</time>
      </trkpt>
      <trkpt lat="45.36808" lon="4.52799">
        <ele>1200.82</ele>
        <time>2018-07-26T06:35:10Z</time>
      </trkpt>
      <trkpt lat="45.36806" lon="4.52798">
        <ele>1200.82</ele>
        <time>2018-07-26T06:35:12Z</time>
      </trkpt>
      <trkpt lat="45.36785" lon="4.52791">
        <ele>1200.82</ele>
        <time>2018-07-26T06:35:31Z</time>
      </trkpt>
      <trkpt lat="45.36768" lon="4.52786">
        <ele>1201.3</ele>
        <time>2018-07-26T06:35:49Z</time>
      </trkpt>
      <trkpt lat="45.36749" lon="4.52782">
        <ele>1202.27</ele>
        <time>2018-07-26T06:36:09Z</time>
      </trkpt>
      <trkpt lat="45.36732" lon="4.52772">
        <ele>1203.23</ele>
        <time>2018-07-26T06:36:28Z</time>
      </trkpt>
      <trkpt lat="45.36718" lon="4.52763">
        <ele>1204.19</ele>
        <time>2018-07-26T06:36:43Z</time>
      </trkpt>
      <trkpt lat="45.36703" lon="4.52755">
        <ele>1205.15</ele>
        <time>2018-07-26T06:37:00Z</time>
      </trkpt>
      <trkpt lat="45.36693" lon="4.5275">
        <ele>1205.63</ele>
        <time>2018-07-26T06:37:14Z</time>
      </trkpt>
      <trkpt lat="45.36681" lon="4.52743">
        <ele>1207.07</ele>
        <time>2018-07-26T06:37:28Z</time>
      </trkpt>
      <trkpt lat="45.36669" lon="4.52739">
        <ele>1207.55</ele>
        <time>2018-07-26T06:37:41Z</time>
      </trkpt>
      <trkpt lat="45.36655" lon="4.52728">
        <ele>1209.48</ele>
        <time>2018-07-26T06:37:59Z</time>
      </trkpt>
      <trkpt lat="45.36645" lon="4.52724">
        <ele>1209.96</ele>
        <time>2018-07-26T06:38:12Z</time>
      </trkpt>
      <trkpt lat="45.36631" lon="4.52717">
        <ele>1211.4</ele>
        <time>2018-07-26T06:38:28Z</time>
      </trkpt>
      <trkpt lat="45.36618" lon="4.5271">
        <ele>1212.84</ele>
        <time>2018-07-26T06:38:44Z</time>
      </trkpt>
      <trkpt lat="45.36604" lon="4.52705">
        <ele>1214.76</ele>
        <time>2018-07-26T06:39:01Z</time>
      </trkpt>
      <trkpt lat="45.36593" lon="4.52698">
        <ele>1216.21</ele>
        <time>2018-07-26T06:39:17Z</time>
      </trkpt>
      <trkpt lat="45.36579" lon="4.52689">
        <ele>1218.13</ele>
        <time>2018-07-26T06:39:35Z</time>
      </trkpt>
      <trkpt lat="45.36569" lon="4.52679">
        <ele>1220.53</ele>
        <time>2018-07-26T06:39:50Z</time>
      </trkpt>
      <trkpt lat="45.36558" lon="4.52667">
        <ele>1222.45</ele>
        <time>2018-07-26T06:40:07Z</time>
      </trkpt>
      <trkpt lat="45.36548" lon="4.52656">
        <ele>1223.9</ele>
        <time>2018-07-26T06:40:23Z</time>
      </trkpt>
      <trkpt lat="45.36535" lon="4.52643">
        <ele>1225.82</ele>
        <time>2018-07-26T06:40:40Z</time>
      </trkpt>
      <trkpt lat="45.36523" lon="4.52633">
        <ele>1227.26</ele>
        <time>2018-07-26T06:40:56Z</time>
      </trkpt>
      <trkpt lat="45.36521" lon="4.52631">
        <ele>1227.74</ele>
        <time>2018-07-26T06:40:59Z</time>
      </trkpt>
      <trkpt lat="45.36506" lon="4.52618">
        <ele>1229.18</ele>
        <time>2018-07-26T06:41:17Z</time>
      </trkpt>
      <trkpt lat="45.36492" lon="4.5262">
        <ele>1230.14</ele>
        <time>2018-07-26T06:41:32Z</time>
      </trkpt>
      <trkpt lat="45.36474" lon="4.52632">
        <ele>1230.62</ele>
        <time>2018-07-26T06:41:54Z</time>
      </trkpt>
      <trkpt lat="45.36453" lon="4.52629">
        <ele>1231.11</ele>
        <time>2018-07-26T06:42:13Z</time>
      </trkpt>
      <trkpt lat="45.36432" lon="4.52622">
        <ele>1229.66</ele>
        <time>2018-07-26T06:42:35Z</time>
      </trkpt>
      <trkpt lat="45.36417" lon="4.52616">
        <ele>1229.18</ele>
        <time>2018-07-26T06:42:51Z</time>
      </trkpt>
      <trkpt lat="45.36398" lon="4.5261">
        <ele>1228.22</ele>
        <time>2018-07-26T06:43:10Z</time>
      </trkpt>
      <trkpt lat="45.36381" lon="4.52599">
        <ele>1226.3</ele>
        <time>2018-07-26T06:43:27Z</time>
      </trkpt>
      <trkpt lat="45.36372" lon="4.5259">
        <ele>1224.86</ele>
        <time>2018-07-26T06:43:46Z</time>
      </trkpt>
      <trkpt lat="45.36361" lon="4.52565">
        <ele>1223.42</ele>
        <time>2018-07-26T06:44:05Z</time>
      </trkpt>
      <trkpt lat="45.36353" lon="4.52546">
        <ele>1221.97</ele>
        <time>2018-07-26T06:44:24Z</time>
      </trkpt>
      <trkpt lat="45.3634" lon="4.52531">
        <ele>1221.49</ele>
        <time>2018-07-26T06:44:42Z</time>
      </trkpt>
      <trkpt lat="45.36327" lon="4.52511">
        <ele>1220.53</ele>
        <time>2018-07-26T06:44:59Z</time>
      </trkpt>
      <trkpt lat="45.36316" lon="4.52495">
        <ele>1219.57</ele>
        <time>2018-07-26T06:45:13Z</time>
      </trkpt>
      <trkpt lat="45.36303" lon="4.52474">
        <ele>1219.09</ele>
        <time>2018-07-26T06:45:32Z</time>
      </trkpt>
      <trkpt lat="45.36292" lon="4.52458">
        <ele>1218.13</ele>
        <time>2018-07-26T06:45:50Z</time>
      </trkpt>
      <trkpt lat="45.36279" lon="4.52437">
        <ele>1218.13</ele>
        <time>2018-07-26T06:46:07Z</time>
      </trkpt>
      <trkpt lat="45.36269" lon="4.5242">
        <ele>1216.69</ele>
        <time>2018-07-26T06:46:25Z</time>
      </trkpt>
      <trkpt lat="45.36259" lon="4.52401">
        <ele>1215.72</ele>
        <time>2018-07-26T06:46:43Z</time>
      </trkpt>
      <trkpt lat="45.36246" lon="4.52381">
        <ele>1214.28</ele>
        <time>2018-07-26T06:47:00Z</time>
      </trkpt>
      <trkpt lat="45.36243" lon="4.52357">
        <ele>1212.36</ele>
        <time>2018-07-26T06:47:19Z</time>
      </trkpt>
      <trkpt lat="45.36239" lon="4.52336">
        <ele>1210.92</ele>
        <time>2018-07-26T06:47:35Z</time>
      </trkpt>
      <trkpt lat="45.3623" lon="4.52313">
        <ele>1209</ele>
        <time>2018-07-26T06:47:53Z</time>
      </trkpt>
      <trkpt lat="45.36227" lon="4.52295">
        <ele>1207.55</ele>
        <time>2018-07-26T06:48:11Z</time>
      </trkpt>
      <trkpt lat="45.36219" lon="4.52277">
        <ele>1205.63</ele>
        <time>2018-07-26T06:48:28Z</time>
      </trkpt>
      <trkpt lat="45.36217" lon="4.52269">
        <ele>1205.15</ele>
        <time>2018-07-26T06:48:46Z</time>
      </trkpt>
      <trkpt lat="45.36213" lon="4.52265">
        <ele>1205.15</ele>
        <time>2018-07-26T06:49:13Z</time>
      </trkpt>
      <trkpt lat="45.36205" lon="4.5225">
        <ele>1203.71</ele>
        <time>2018-07-26T06:49:26Z</time>
      </trkpt>
      <trkpt lat="45.36195" lon="4.52228">
        <ele>1201.79</ele>
        <time>2018-07-26T06:49:45Z</time>
      </trkpt>
      <trkpt lat="45.36185" lon="4.5221">
        <ele>1199.86</ele>
        <time>2018-07-26T06:49:59Z</time>
      </trkpt>
      <trkpt lat="45.36169" lon="4.52196">
        <ele>1198.42</ele>
        <time>2018-07-26T06:50:15Z</time>
      </trkpt>
      <trkpt lat="45.36156" lon="4.52178">
        <ele>1196.98</ele>
        <time>2018-07-26T06:50:34Z</time>
      </trkpt>
      <trkpt lat="45.36148" lon="4.52176">
        <ele>1196.98</ele>
        <time>2018-07-26T06:50:47Z</time>
      </trkpt>
      <trkpt lat="45.36151" lon="4.52176">
        <ele>1197.46</ele>
        <time>2018-07-26T06:51:01Z</time>
      </trkpt>
      <trkpt lat="45.3615" lon="4.52179">
        <ele>1196.98</ele>
        <time>2018-07-26T06:51:24Z</time>
      </trkpt>
      <trkpt lat="45.36145" lon="4.52166">
        <ele>1196.5</ele>
        <time>2018-07-26T06:51:38Z</time>
      </trkpt>
      <trkpt lat="45.36138" lon="4.52151">
        <ele>1195.06</ele>
        <time>2018-07-26T06:51:52Z</time>
      </trkpt>
      <trkpt lat="45.36135" lon="4.52133">
        <ele>1194.09</ele>
        <time>2018-07-26T06:52:09Z</time>
      </trkpt>
      <trkpt lat="45.36134" lon="4.52124">
        <ele>1193.13</ele>
        <time>2018-07-26T06:52:17Z</time>
      </trkpt>
      <trkpt lat="45.36137" lon="4.52097">
        <ele>1190.25</ele>
        <time>2018-07-26T06:52:37Z</time>
      </trkpt>
      <trkpt lat="45.36144" lon="4.52078">
        <ele>1188.81</ele>
        <time>2018-07-26T06:52:54Z</time>
      </trkpt>
      <trkpt lat="45.3615" lon="4.52061">
        <ele>1186.88</ele>
        <time>2018-07-26T06:53:09Z</time>
      </trkpt>
      <trkpt lat="45.36161" lon="4.52044">
        <ele>1185.44</ele>
        <time>2018-07-26T06:53:27Z</time>
      </trkpt>
      <trkpt lat="45.36169" lon="4.52026">
        <ele>1183.52</ele>
        <time>2018-07-26T06:53:43Z</time>
      </trkpt>
      <trkpt lat="45.36174" lon="4.52006">
        <ele>1181.6</ele>
        <time>2018-07-26T06:53:59Z</time>
      </trkpt>
      <trkpt lat="45.36174" lon="4.52005">
        <ele>1181.12</ele>
        <time>2018-07-26T06:54:17Z</time>
      </trkpt>
      <trkpt lat="45.36176" lon="4.51998">
        <ele>1181.12</ele>
        <time>2018-07-26T06:54:23Z</time>
      </trkpt>
      <trkpt lat="45.36184" lon="4.51972">
        <ele>1178.23</ele>
        <time>2018-07-26T06:54:42Z</time>
      </trkpt>
      <trkpt lat="45.36187" lon="4.5196">
        <ele>1177.75</ele>
        <time>2018-07-26T06:54:59Z</time>
      </trkpt>
      <trkpt lat="45.36189" lon="4.51961">
        <ele>1177.75</ele>
        <time>2018-07-26T06:55:01Z</time>
      </trkpt>
      <trkpt lat="45.36203" lon="4.51949">
        <ele>1176.31</ele>
        <time>2018-07-26T06:55:18Z</time>
      </trkpt>
      <trkpt lat="45.36215" lon="4.5193">
        <ele>1174.87</ele>
        <time>2018-07-26T06:55:35Z</time>
      </trkpt>
      <trkpt lat="45.36224" lon="4.51907">
        <ele>1172.47</ele>
        <time>2018-07-26T06:55:54Z</time>
      </trkpt>
      <trkpt lat="45.36235" lon="4.51878">
        <ele>1171.02</ele>
        <time>2018-07-26T06:56:15Z</time>
      </trkpt>
      <trkpt lat="45.3624" lon="4.51851">
        <ele>1169.58</ele>
        <time>2018-07-26T06:56:34Z</time>
      </trkpt>
      <trkpt lat="45.3624" lon="4.51831">
        <ele>1168.62</ele>
        <time>2018-07-26T06:56:51Z</time>
      </trkpt>
      <trkpt lat="45.36238" lon="4.51835">
        <ele>1168.62</ele>
        <time>2018-07-26T06:57:12Z</time>
      </trkpt>
      <trkpt lat="45.3624" lon="4.51834">
        <ele>1168.62</ele>
        <time>2018-07-26T06:57:28Z</time>
      </trkpt>
      <trkpt lat="45.36249" lon="4.51834">
        <ele>1168.14</ele>
        <time>2018-07-26T06:57:47Z</time>
      </trkpt>
      <trkpt lat="45.36268" lon="4.51821">
        <ele>1166.22</ele>
        <time>2018-07-26T06:58:07Z</time>
      </trkpt>
      <trkpt lat="45.36284" lon="4.51813">
        <ele>1164.29</ele>
        <time>2018-07-26T06:58:24Z</time>
      </trkpt>
      <trkpt lat="45.36301" lon="4.51807">
        <ele>1161.41</ele>
        <time>2018-07-26T06:58:46Z</time>
      </trkpt>
      <trkpt lat="45.36299" lon="4.51805">
        <ele>1161.89</ele>
        <time>2018-07-26T06:59:09Z</time>
      </trkpt>
      <trkpt lat="45.36309" lon="4.518">
        <ele>1160.93</ele>
        <time>2018-07-26T06:59:19Z</time>
      </trkpt>
      <trkpt lat="45.36326" lon="4.51789">
        <ele>1159.97</ele>
        <time>2018-07-26T06:59:37Z</time>
      </trkpt>
      <trkpt lat="45.36326" lon="4.5178">
        <ele>1160.45</ele>
        <time>2018-07-26T06:59:42Z</time>
      </trkpt>
      <trkpt lat="45.36322" lon="4.51771">
        <ele>1159.97</ele>
        <time>2018-07-26T06:59:48Z</time>
      </trkpt>
      <trkpt lat="45.36303" lon="4.51752">
        <ele>1159.97</ele>
        <time>2018-07-26T07:00:08Z</time>
      </trkpt>
      <trkpt lat="45.36301" lon="4.51749">
        <ele>1159.97</ele>
        <time>2018-07-26T07:00:11Z</time>
      </trkpt>
      <trkpt lat="45.36294" lon="4.51738">
        <ele>1159.97</ele>
        <time>2018-07-26T07:00:28Z</time>
      </trkpt>
      <trkpt lat="45.36293" lon="4.51737">
        <ele>1159.49</ele>
        <time>2018-07-26T07:00:45Z</time>
      </trkpt>
      <trkpt lat="45.36296" lon="4.51739">
        <ele>1159.97</ele>
        <time>2018-07-26T07:00:56Z</time>
      </trkpt>
      <trkpt lat="45.363" lon="4.5174">
        <ele>1159.97</ele>
        <time>2018-07-26T07:01:04Z</time>
      </trkpt>
      <trkpt lat="45.36308" lon="4.51733">
        <ele>1159.49</ele>
        <time>2018-07-26T07:01:20Z</time>
      </trkpt>
      <trkpt lat="45.36308" lon="4.51736">
        <ele>1159.97</ele>
        <time>2018-07-26T07:01:41Z</time>
      </trkpt>
      <trkpt lat="45.36307" lon="4.5173">
        <ele>1155.16</ele>
        <time>2018-07-26T07:02:13Z</time>
      </trkpt>
      <trkpt lat="45.36308" lon="4.5173">
        <ele>1159.49</ele>
        <time>2018-07-26T07:02:14Z</time>
      </trkpt>
      <trkpt lat="45.36308" lon="4.5173">
        <ele>1164.77</ele>
        <time>2018-07-26T07:02:15Z</time>
      </trkpt>
      <trkpt lat="45.36308" lon="4.5173">
        <ele>1159.97</ele>
        <time>2018-07-26T07:02:16Z</time>
      </trkpt>
      <trkpt lat="45.36308" lon="4.5173">
        <ele>1154.68</ele>
        <time>2018-07-26T07:02:17Z</time>
      </trkpt>
      <trkpt lat="45.36308" lon="4.51731">
        <ele>1158.05</ele>
        <time>2018-07-26T07:02:18Z</time>
      </trkpt>
      <trkpt lat="45.36307" lon="4.51731">
        <ele>1165.26</ele>
        <time>2018-07-26T07:02:19Z</time>
      </trkpt>
      <trkpt lat="45.36307" lon="4.51731">
        <ele>1159.97</ele>
        <time>2018-07-26T07:02:20Z</time>
      </trkpt>
      <trkpt lat="45.36308" lon="4.51731">
        <ele>1159.01</ele>
        <time>2018-07-26T07:02:30Z</time>
      </trkpt>
      <trkpt lat="45.3631" lon="4.51731">
        <ele>1159.01</ele>
        <time>2018-07-26T07:02:58Z</time>
      </trkpt>
      <trkpt lat="45.36311" lon="4.51729">
        <ele>1154.2</ele>
        <time>2018-07-26T07:03:15Z</time>
      </trkpt>
      <trkpt lat="45.36311" lon="4.5173">
        <ele>1154.2</ele>
        <time>2018-07-26T07:03:16Z</time>
      </trkpt>
      <trkpt lat="45.36311" lon="4.51732">
        <ele>1168.62</ele>
        <time>2018-07-26T07:03:17Z</time>
      </trkpt>
      <trkpt lat="45.36311" lon="4.51732">
        <ele>1159.49</ele>
        <time>2018-07-26T07:03:18Z</time>
      </trkpt>
      <trkpt lat="45.36307" lon="4.51735">
        <ele>1159.97</ele>
        <time>2018-07-26T07:03:36Z</time>
      </trkpt>
      <trkpt lat="45.363" lon="4.51736">
        <ele>1159.97</ele>
        <time>2018-07-26T07:03:55Z</time>
      </trkpt>
      <trkpt lat="45.3629" lon="4.51731">
        <ele>1160.45</ele>
        <time>2018-07-26T07:04:11Z</time>
      </trkpt>
      <trkpt lat="45.36289" lon="4.51725">
        <ele>1159.97</ele>
        <time>2018-07-26T07:04:27Z</time>
      </trkpt>
      <trkpt lat="45.36289" lon="4.51711">
        <ele>1159.97</ele>
        <time>2018-07-26T07:04:46Z</time>
      </trkpt>
      <trkpt lat="45.3629" lon="4.51701">
        <ele>1160.45</ele>
        <time>2018-07-26T07:05:01Z</time>
      </trkpt>
      <trkpt lat="45.36292" lon="4.51694">
        <ele>1160.93</ele>
        <time>2018-07-26T07:05:15Z</time>
      </trkpt>
      <trkpt lat="45.36293" lon="4.51675">
        <ele>1161.89</ele>
        <time>2018-07-26T07:05:28Z</time>
      </trkpt>
      <trkpt lat="45.36294" lon="4.51651">
        <ele>1162.85</ele>
        <time>2018-07-26T07:05:46Z</time>
      </trkpt>
      <trkpt lat="45.36292" lon="4.51627">
        <ele>1163.33</ele>
        <time>2018-07-26T07:06:05Z</time>
      </trkpt>
      <trkpt lat="45.36288" lon="4.5161">
        <ele>1164.77</ele>
        <time>2018-07-26T07:06:20Z</time>
      </trkpt>
      <trkpt lat="45.36284" lon="4.51594">
        <ele>1166.7</ele>
        <time>2018-07-26T07:06:36Z</time>
      </trkpt>
      <trkpt lat="45.36282" lon="4.51579">
        <ele>1168.14</ele>
        <time>2018-07-26T07:06:52Z</time>
      </trkpt>
      <trkpt lat="45.36282" lon="4.51566">
        <ele>1169.1</ele>
        <time>2018-07-26T07:07:07Z</time>
      </trkpt>
      <trkpt lat="45.36282" lon="4.5155">
        <ele>1170.54</ele>
        <time>2018-07-26T07:07:22Z</time>
      </trkpt>
      <trkpt lat="45.36285" lon="4.51532">
        <ele>1171.5</ele>
        <time>2018-07-26T07:07:37Z</time>
      </trkpt>
      <trkpt lat="45.36288" lon="4.51515">
        <ele>1172.95</ele>
        <time>2018-07-26T07:07:55Z</time>
      </trkpt>
      <trkpt lat="45.36291" lon="4.51495">
        <ele>1174.87</ele>
        <time>2018-07-26T07:08:14Z</time>
      </trkpt>
      <trkpt lat="45.36292" lon="4.51474">
        <ele>1175.83</ele>
        <time>2018-07-26T07:08:33Z</time>
      </trkpt>
      <trkpt lat="45.36292" lon="4.51458">
        <ele>1176.79</ele>
        <time>2018-07-26T07:08:49Z</time>
      </trkpt>
      <trkpt lat="45.36296" lon="4.5144">
        <ele>1178.23</ele>
        <time>2018-07-26T07:09:06Z</time>
      </trkpt>
      <trkpt lat="45.36297" lon="4.51415">
        <ele>1178.71</ele>
        <time>2018-07-26T07:09:26Z</time>
      </trkpt>
      <trkpt lat="45.36293" lon="4.51395">
        <ele>1180.16</ele>
        <time>2018-07-26T07:09:45Z</time>
      </trkpt>
      <trkpt lat="45.36292" lon="4.5137">
        <ele>1181.12</ele>
        <time>2018-07-26T07:10:02Z</time>
      </trkpt>
      <trkpt lat="45.36292" lon="4.51351">
        <ele>1181.6</ele>
        <time>2018-07-26T07:10:18Z</time>
      </trkpt>
      <trkpt lat="45.36286" lon="4.51329">
        <ele>1181.6</ele>
        <time>2018-07-26T07:10:35Z</time>
      </trkpt>
      <trkpt lat="45.3628" lon="4.51307">
        <ele>1182.08</ele>
        <time>2018-07-26T07:10:51Z</time>
      </trkpt>
      <trkpt lat="45.36271" lon="4.5129">
        <ele>1182.08</ele>
        <time>2018-07-26T07:11:08Z</time>
      </trkpt>
      <trkpt lat="45.36269" lon="4.51279">
        <ele>1181.6</ele>
        <time>2018-07-26T07:11:22Z</time>
      </trkpt>
      <trkpt lat="45.36272" lon="4.51276">
        <ele>1182.08</ele>
        <time>2018-07-26T07:11:41Z</time>
      </trkpt>
      <trkpt lat="45.36265" lon="4.51272">
        <ele>1182.08</ele>
        <time>2018-07-26T07:12:06Z</time>
      </trkpt>
      <trkpt lat="45.36258" lon="4.51258">
        <ele>1182.08</ele>
        <time>2018-07-26T07:12:22Z</time>
      </trkpt>
      <trkpt lat="45.36261" lon="4.51261">
        <ele>1182.08</ele>
        <time>2018-07-26T07:12:44Z</time>
      </trkpt>
      <trkpt lat="45.36261" lon="4.51257">
        <ele>1182.08</ele>
        <time>2018-07-26T07:13:10Z</time>
      </trkpt>
      <trkpt lat="45.36267" lon="4.51254">
        <ele>1182.08</ele>
        <time>2018-07-26T07:13:36Z</time>
      </trkpt>
      <trkpt lat="45.36261" lon="4.51247">
        <ele>1182.08</ele>
        <time>2018-07-26T07:14:04Z</time>
      </trkpt>
      <trkpt lat="45.36254" lon="4.51228">
        <ele>1181.12</ele>
        <time>2018-07-26T07:14:24Z</time>
      </trkpt>
      <trkpt lat="45.36238" lon="4.51208">
        <ele>1181.12</ele>
        <time>2018-07-26T07:14:42Z</time>
      </trkpt>
      <trkpt lat="45.36223" lon="4.51195">
        <ele>1180.64</ele>
        <time>2018-07-26T07:14:58Z</time>
      </trkpt>
      <trkpt lat="45.36207" lon="4.5118">
        <ele>1180.64</ele>
        <time>2018-07-26T07:15:16Z</time>
      </trkpt>
      <trkpt lat="45.3619" lon="4.51162">
        <ele>1180.16</ele>
        <time>2018-07-26T07:15:37Z</time>
      </trkpt>
      <trkpt lat="45.36173" lon="4.51148">
        <ele>1179.67</ele>
        <time>2018-07-26T07:15:57Z</time>
      </trkpt>
      <trkpt lat="45.36151" lon="4.51142">
        <ele>1179.67</ele>
        <time>2018-07-26T07:16:18Z</time>
      </trkpt>
      <trkpt lat="45.36133" lon="4.51135">
        <ele>1179.19</ele>
        <time>2018-07-26T07:16:37Z</time>
      </trkpt>
      <trkpt lat="45.36116" lon="4.51128">
        <ele>1178.71</ele>
        <time>2018-07-26T07:16:56Z</time>
      </trkpt>
      <trkpt lat="45.36102" lon="4.51114">
        <ele>1177.27</ele>
        <time>2018-07-26T07:17:13Z</time>
      </trkpt>
      <trkpt lat="45.36087" lon="4.51098">
        <ele>1176.79</ele>
        <time>2018-07-26T07:17:32Z</time>
      </trkpt>
      <trkpt lat="45.36065" lon="4.51084">
        <ele>1175.83</ele>
        <time>2018-07-26T07:17:56Z</time>
      </trkpt>
      <trkpt lat="45.36045" lon="4.51068">
        <ele>1175.35</ele>
        <time>2018-07-26T07:18:16Z</time>
      </trkpt>
      <trkpt lat="45.36029" lon="4.51057">
        <ele>1174.87</ele>
        <time>2018-07-26T07:18:34Z</time>
      </trkpt>
      <trkpt lat="45.36023" lon="4.51067">
        <ele>1174.39</ele>
        <time>2018-07-26T07:18:51Z</time>
      </trkpt>
      <trkpt lat="45.3602" lon="4.51059">
        <ele>1173.91</ele>
        <time>2018-07-26T07:19:13Z</time>
      </trkpt>
      <trkpt lat="45.36006" lon="4.51049">
        <ele>1173.43</ele>
        <time>2018-07-26T07:19:28Z</time>
      </trkpt>
      <trkpt lat="45.36001" lon="4.5104">
        <ele>1173.91</ele>
        <time>2018-07-26T07:19:45Z</time>
      </trkpt>
      <trkpt lat="45.35995" lon="4.5104">
        <ele>1172.95</ele>
        <time>2018-07-26T07:20:17Z</time>
      </trkpt>
      <trkpt lat="45.35987" lon="4.51038">
        <ele>1172.47</ele>
        <time>2018-07-26T07:20:23Z</time>
      </trkpt>
      <trkpt lat="45.35966" lon="4.51037">
        <ele>1171.02</ele>
        <time>2018-07-26T07:20:42Z</time>
      </trkpt>
      <trkpt lat="45.35945" lon="4.51028">
        <ele>1170.54</ele>
        <time>2018-07-26T07:21:01Z</time>
      </trkpt>
      <trkpt lat="45.35921" lon="4.51033">
        <ele>1169.1</ele>
        <time>2018-07-26T07:21:23Z</time>
      </trkpt>
      <trkpt lat="45.35897" lon="4.51018">
        <ele>1167.66</ele>
        <time>2018-07-26T07:21:45Z</time>
      </trkpt>
      <trkpt lat="45.35879" lon="4.5101">
        <ele>1166.22</ele>
        <time>2018-07-26T07:22:03Z</time>
      </trkpt>
      <trkpt lat="45.35861" lon="4.51014">
        <ele>1165.74</ele>
        <time>2018-07-26T07:22:19Z</time>
      </trkpt>
      <trkpt lat="45.35845" lon="4.51013">
        <ele>1164.77</ele>
        <time>2018-07-26T07:22:39Z</time>
      </trkpt>
      <trkpt lat="45.35825" lon="4.51009">
        <ele>1163.81</ele>
        <time>2018-07-26T07:22:58Z</time>
      </trkpt>
      <trkpt lat="45.35805" lon="4.51005">
        <ele>1163.33</ele>
        <time>2018-07-26T07:23:18Z</time>
      </trkpt>
      <trkpt lat="45.35791" lon="4.5101">
        <ele>1163.33</ele>
        <time>2018-07-26T07:23:33Z</time>
      </trkpt>
      <trkpt lat="45.35771" lon="4.51021">
        <ele>1162.85</ele>
        <time>2018-07-26T07:23:54Z</time>
      </trkpt>
      <trkpt lat="45.35753" lon="4.51024">
        <ele>1162.85</ele>
        <time>2018-07-26T07:24:13Z</time>
      </trkpt>
      <trkpt lat="45.35736" lon="4.5103">
        <ele>1162.85</ele>
        <time>2018-07-26T07:24:30Z</time>
      </trkpt>
      <trkpt lat="45.35733" lon="4.51035">
        <ele>1162.85</ele>
        <time>2018-07-26T07:24:36Z</time>
      </trkpt>
      <trkpt lat="45.3572" lon="4.51048">
        <ele>1163.81</ele>
        <time>2018-07-26T07:24:52Z</time>
      </trkpt>
      <trkpt lat="45.35704" lon="4.51058">
        <ele>1163.33</ele>
        <time>2018-07-26T07:25:09Z</time>
      </trkpt>
      <trkpt lat="45.35697" lon="4.51064">
        <ele>1163.33</ele>
        <time>2018-07-26T07:25:22Z</time>
      </trkpt>
      <trkpt lat="45.35683" lon="4.51077">
        <ele>1162.85</ele>
        <time>2018-07-26T07:25:39Z</time>
      </trkpt>
      <trkpt lat="45.35667" lon="4.51091">
        <ele>1161.89</ele>
        <time>2018-07-26T07:25:58Z</time>
      </trkpt>
      <trkpt lat="45.35656" lon="4.51102">
        <ele>1161.41</ele>
        <time>2018-07-26T07:26:12Z</time>
      </trkpt>
      <trkpt lat="45.35649" lon="4.51111">
        <ele>1161.41</ele>
        <time>2018-07-26T07:26:30Z</time>
      </trkpt>
      <trkpt lat="45.35651" lon="4.51113">
        <ele>1161.41</ele>
        <time>2018-07-26T07:26:48Z</time>
      </trkpt>
      <trkpt lat="45.35648" lon="4.5112">
        <ele>1160.93</ele>
        <time>2018-07-26T07:27:11Z</time>
      </trkpt>
      <trkpt lat="45.35636" lon="4.51122">
        <ele>1161.41</ele>
        <time>2018-07-26T07:27:27Z</time>
      </trkpt>
      <trkpt lat="45.35628" lon="4.51137">
        <ele>1161.41</ele>
        <time>2018-07-26T07:27:46Z</time>
      </trkpt>
      <trkpt lat="45.35626" lon="4.51143">
        <ele>1161.41</ele>
        <time>2018-07-26T07:28:21Z</time>
      </trkpt>
      <trkpt lat="45.35626" lon="4.51144">
        <ele>1161.41</ele>
        <time>2018-07-26T07:28:22Z</time>
      </trkpt>
      <trkpt lat="45.35617" lon="4.5115">
        <ele>1162.37</ele>
        <time>2018-07-26T07:28:37Z</time>
      </trkpt>
      <trkpt lat="45.35607" lon="4.51158">
        <ele>1163.33</ele>
        <time>2018-07-26T07:28:51Z</time>
      </trkpt>
      <trkpt lat="45.35593" lon="4.51168">
        <ele>1163.81</ele>
        <time>2018-07-26T07:29:08Z</time>
      </trkpt>
      <trkpt lat="45.35578" lon="4.51177">
        <ele>1164.77</ele>
        <time>2018-07-26T07:29:26Z</time>
      </trkpt>
      <trkpt lat="45.35564" lon="4.51188">
        <ele>1165.26</ele>
        <time>2018-07-26T07:29:44Z</time>
      </trkpt>
      <trkpt lat="45.35555" lon="4.51203">
        <ele>1166.7</ele>
        <time>2018-07-26T07:30:01Z</time>
      </trkpt>
      <trkpt lat="45.35544" lon="4.51218">
        <ele>1168.14</ele>
        <time>2018-07-26T07:30:19Z</time>
      </trkpt>
      <trkpt lat="45.35534" lon="4.51225">
        <ele>1168.62</ele>
        <time>2018-07-26T07:30:34Z</time>
      </trkpt>
      <trkpt lat="45.35523" lon="4.51236">
        <ele>1169.58</ele>
        <time>2018-07-26T07:30:50Z</time>
      </trkpt>
      <trkpt lat="45.35512" lon="4.51247">
        <ele>1170.06</ele>
        <time>2018-07-26T07:31:06Z</time>
      </trkpt>
      <trkpt lat="45.35501" lon="4.51261">
        <ele>1170.54</ele>
        <time>2018-07-26T07:31:23Z</time>
      </trkpt>
      <trkpt lat="45.35489" lon="4.51277">
        <ele>1171.5</ele>
        <time>2018-07-26T07:31:41Z</time>
      </trkpt>
      <trkpt lat="45.35488" lon="4.51277">
        <ele>1171.5</ele>
        <time>2018-07-26T07:31:42Z</time>
      </trkpt>
      <trkpt lat="45.35474" lon="4.51291">
        <ele>1171.98</ele>
        <time>2018-07-26T07:32:00Z</time>
      </trkpt>
      <trkpt lat="45.35456" lon="4.51308">
        <ele>1172.47</ele>
        <time>2018-07-26T07:32:19Z</time>
      </trkpt>
      <trkpt lat="45.35453" lon="4.51316">
        <ele>1172.95</ele>
        <time>2018-07-26T07:32:30Z</time>
      </trkpt>
      <trkpt lat="45.35441" lon="4.51325">
        <ele>1173.43</ele>
        <time>2018-07-26T07:32:47Z</time>
      </trkpt>
      <trkpt lat="45.35426" lon="4.51345">
        <ele>1173.91</ele>
        <time>2018-07-26T07:33:08Z</time>
      </trkpt>
      <trkpt lat="45.35419" lon="4.51363">
        <ele>1174.39</ele>
        <time>2018-07-26T07:33:22Z</time>
      </trkpt>
      <trkpt lat="45.35412" lon="4.51387">
        <ele>1175.35</ele>
        <time>2018-07-26T07:33:41Z</time>
      </trkpt>
      <trkpt lat="45.35408" lon="4.51403">
        <ele>1176.31</ele>
        <time>2018-07-26T07:33:54Z</time>
      </trkpt>
      <trkpt lat="45.35404" lon="4.51418">
        <ele>1177.27</ele>
        <time>2018-07-26T07:34:09Z</time>
      </trkpt>
      <trkpt lat="45.35398" lon="4.51429">
        <ele>1178.71</ele>
        <time>2018-07-26T07:34:22Z</time>
      </trkpt>
      <trkpt lat="45.35389" lon="4.51445">
        <ele>1179.67</ele>
        <time>2018-07-26T07:34:39Z</time>
      </trkpt>
      <trkpt lat="45.3538" lon="4.51464">
        <ele>1180.64</ele>
        <time>2018-07-26T07:34:54Z</time>
      </trkpt>
      <trkpt lat="45.35378" lon="4.51486">
        <ele>1181.12</ele>
        <time>2018-07-26T07:35:12Z</time>
      </trkpt>
      <trkpt lat="45.35378" lon="4.51508">
        <ele>1182.08</ele>
        <time>2018-07-26T07:35:28Z</time>
      </trkpt>
      <trkpt lat="45.35383" lon="4.51525">
        <ele>1183.04</ele>
        <time>2018-07-26T07:35:43Z</time>
      </trkpt>
      <trkpt lat="45.35385" lon="4.51537">
        <ele>1184</ele>
        <time>2018-07-26T07:35:57Z</time>
      </trkpt>
      <trkpt lat="45.35385" lon="4.51538">
        <ele>1183.52</ele>
        <time>2018-07-26T07:36:13Z</time>
      </trkpt>
      <trkpt lat="45.35388" lon="4.5154">
        <ele>1183.52</ele>
        <time>2018-07-26T07:36:39Z</time>
      </trkpt>
      <trkpt lat="45.35388" lon="4.51543">
        <ele>1183.04</ele>
        <time>2018-07-26T07:37:04Z</time>
      </trkpt>
      <trkpt lat="45.35389" lon="4.51547">
        <ele>1184</ele>
        <time>2018-07-26T07:37:30Z</time>
      </trkpt>
      <trkpt lat="45.35388" lon="4.51566">
        <ele>1182.56</ele>
        <time>2018-07-26T07:37:48Z</time>
      </trkpt>
      <trkpt lat="45.35381" lon="4.5159">
        <ele>1180.64</ele>
        <time>2018-07-26T07:38:09Z</time>
      </trkpt>
      <trkpt lat="45.35378" lon="4.51597">
        <ele>1180.16</ele>
        <time>2018-07-26T07:38:27Z</time>
      </trkpt>
      <trkpt lat="45.35369" lon="4.51601">
        <ele>1180.64</ele>
        <time>2018-07-26T07:38:54Z</time>
      </trkpt>
      <trkpt lat="45.35365" lon="4.51603">
        <ele>1180.16</ele>
        <time>2018-07-26T07:38:58Z</time>
      </trkpt>
      <trkpt lat="45.35358" lon="4.51612">
        <ele>1180.64</ele>
        <time>2018-07-26T07:39:13Z</time>
      </trkpt>
      <trkpt lat="45.3536" lon="4.5161">
        <ele>1180.64</ele>
        <time>2018-07-26T07:39:38Z</time>
      </trkpt>
      <trkpt lat="45.3536" lon="4.51607">
        <ele>1180.64</ele>
        <time>2018-07-26T07:40:03Z</time>
      </trkpt>
      <trkpt lat="45.35361" lon="4.51604">
        <ele>1180.64</ele>
        <time>2018-07-26T07:40:25Z</time>
      </trkpt>
      <trkpt lat="45.35358" lon="4.51598">
        <ele>1181.12</ele>
        <time>2018-07-26T07:40:45Z</time>
      </trkpt>
      <trkpt lat="45.35361" lon="4.51609">
        <ele>1180.64</ele>
        <time>2018-07-26T07:41:06Z</time>
      </trkpt>
      <trkpt lat="45.35359" lon="4.5161">
        <ele>1181.6</ele>
        <time>2018-07-26T07:41:25Z</time>
      </trkpt>
      <trkpt lat="45.35358" lon="4.51608">
        <ele>1181.6</ele>
        <time>2018-07-26T07:41:56Z</time>
      </trkpt>
      <trkpt lat="45.35362" lon="4.51611">
        <ele>1181.6</ele>
        <time>2018-07-26T07:42:26Z</time>
      </trkpt>
      <trkpt lat="45.35362" lon="4.51608">
        <ele>1181.6</ele>
        <time>2018-07-26T07:42:44Z</time>
      </trkpt>
      <trkpt lat="45.35361" lon="4.5161">
        <ele>1181.6</ele>
        <time>2018-07-26T07:43:04Z</time>
      </trkpt>
      <trkpt lat="45.3537" lon="4.51606">
        <ele>1182.08</ele>
        <time>2018-07-26T07:43:28Z</time>
      </trkpt>
      <trkpt lat="45.3536" lon="4.51618">
        <ele>1181.6</ele>
        <time>2018-07-26T07:43:42Z</time>
      </trkpt>
      <trkpt lat="45.35343" lon="4.51612">
        <ele>1182.56</ele>
        <time>2018-07-26T07:44:01Z</time>
      </trkpt>
      <trkpt lat="45.35343" lon="4.51612">
        <ele>1182.56</ele>
        <time>2018-07-26T07:44:21Z</time>
      </trkpt>
      <trkpt lat="45.35329" lon="4.516">
        <ele>1183.04</ele>
        <time>2018-07-26T07:44:40Z</time>
      </trkpt>
      <trkpt lat="45.35314" lon="4.51591">
        <ele>1184</ele>
        <time>2018-07-26T07:44:58Z</time>
      </trkpt>
      <trkpt lat="45.353" lon="4.51591">
        <ele>1184.96</ele>
        <time>2018-07-26T07:45:16Z</time>
      </trkpt>
      <trkpt lat="45.35282" lon="4.51587">
        <ele>1184.96</ele>
        <time>2018-07-26T07:45:33Z</time>
      </trkpt>
      <trkpt lat="45.35271" lon="4.51588">
        <ele>1185.44</ele>
        <time>2018-07-26T07:45:48Z</time>
      </trkpt>
      <trkpt lat="45.35252" lon="4.51588">
        <ele>1186.4</ele>
        <time>2018-07-26T07:46:08Z</time>
      </trkpt>
      <trkpt lat="45.35234" lon="4.51585">
        <ele>1187.37</ele>
        <time>2018-07-26T07:46:25Z</time>
      </trkpt>
      <trkpt lat="45.35217" lon="4.51583">
        <ele>1187.37</ele>
        <time>2018-07-26T07:46:44Z</time>
      </trkpt>
      <trkpt lat="45.35198" lon="4.51584">
        <ele>1187.85</ele>
        <time>2018-07-26T07:47:03Z</time>
      </trkpt>
      <trkpt lat="45.35179" lon="4.51584">
        <ele>1188.81</ele>
        <time>2018-07-26T07:47:21Z</time>
      </trkpt>
      <trkpt lat="45.35165" lon="4.51587">
        <ele>1189.29</ele>
        <time>2018-07-26T07:47:40Z</time>
      </trkpt>
      <trkpt lat="45.3515" lon="4.51585">
        <ele>1189.77</ele>
        <time>2018-07-26T07:47:58Z</time>
      </trkpt>
      <trkpt lat="45.35141" lon="4.5159">
        <ele>1189.77</ele>
        <time>2018-07-26T07:48:17Z</time>
      </trkpt>
      <trkpt lat="45.35136" lon="4.51587">
        <ele>1189.29</ele>
        <time>2018-07-26T07:48:50Z</time>
      </trkpt>
      <trkpt lat="45.35134" lon="4.51587">
        <ele>1189.29</ele>
        <time>2018-07-26T07:49:11Z</time>
      </trkpt>
      <trkpt lat="45.3513" lon="4.51587">
        <ele>1189.29</ele>
        <time>2018-07-26T07:49:34Z</time>
      </trkpt>
      <trkpt lat="45.35128" lon="4.51588">
        <ele>1189.77</ele>
        <time>2018-07-26T07:50:01Z</time>
      </trkpt>
      <trkpt lat="45.35124" lon="4.51588">
        <ele>1189.77</ele>
        <time>2018-07-26T07:50:20Z</time>
      </trkpt>
      <trkpt lat="45.35112" lon="4.51591">
        <ele>1190.73</ele>
        <time>2018-07-26T07:50:36Z</time>
      </trkpt>
      <trkpt lat="45.35105" lon="4.51594">
        <ele>1192.17</ele>
        <time>2018-07-26T07:50:53Z</time>
      </trkpt>
      <trkpt lat="45.35092" lon="4.51594">
        <ele>1192.65</ele>
        <time>2018-07-26T07:51:09Z</time>
      </trkpt>
      <trkpt lat="45.35079" lon="4.51595">
        <ele>1193.13</ele>
        <time>2018-07-26T07:51:27Z</time>
      </trkpt>
      <trkpt lat="45.35064" lon="4.51594">
        <ele>1193.13</ele>
        <time>2018-07-26T07:51:43Z</time>
      </trkpt>
      <trkpt lat="45.35055" lon="4.51593">
        <ele>1193.13</ele>
        <time>2018-07-26T07:51:53Z</time>
      </trkpt>
      <trkpt lat="45.3504" lon="4.51585">
        <ele>1192.17</ele>
        <time>2018-07-26T07:52:08Z</time>
      </trkpt>
      <trkpt lat="45.35025" lon="4.51575">
        <ele>1190.73</ele>
        <time>2018-07-26T07:52:22Z</time>
      </trkpt>
      <trkpt lat="45.35016" lon="4.51569">
        <ele>1189.77</ele>
        <time>2018-07-26T07:52:36Z</time>
      </trkpt>
      <trkpt lat="45.35015" lon="4.51568">
        <ele>1188.81</ele>
        <time>2018-07-26T07:52:52Z</time>
      </trkpt>
      <trkpt lat="45.35001" lon="4.51564">
        <ele>1187.85</ele>
        <time>2018-07-26T07:53:05Z</time>
      </trkpt>
      <trkpt lat="45.3498" lon="4.5156">
        <ele>1186.88</ele>
        <time>2018-07-26T07:53:22Z</time>
      </trkpt>
      <trkpt lat="45.34966" lon="4.51559">
        <ele>1184.96</ele>
        <time>2018-07-26T07:53:37Z</time>
      </trkpt>
      <trkpt lat="45.34952" lon="4.51558">
        <ele>1184.48</ele>
        <time>2018-07-26T07:53:52Z</time>
      </trkpt>
      <trkpt lat="45.34951" lon="4.51562">
        <ele>1184</ele>
        <time>2018-07-26T07:54:10Z</time>
      </trkpt>
      <trkpt lat="45.34948" lon="4.5157">
        <ele>1184</ele>
        <time>2018-07-26T07:54:30Z</time>
      </trkpt>
      <trkpt lat="45.34941" lon="4.5157">
        <ele>1183.52</ele>
        <time>2018-07-26T07:54:53Z</time>
      </trkpt>
      <trkpt lat="45.3493" lon="4.51565">
        <ele>1183.52</ele>
        <time>2018-07-26T07:55:10Z</time>
      </trkpt>
      <trkpt lat="45.34933" lon="4.51565">
        <ele>1184</ele>
        <time>2018-07-26T07:55:29Z</time>
      </trkpt>
      <trkpt lat="45.3493" lon="4.5156">
        <ele>1184.96</ele>
        <time>2018-07-26T07:56:02Z</time>
      </trkpt>
      <trkpt lat="45.34918" lon="4.51554">
        <ele>1184</ele>
        <time>2018-07-26T07:56:20Z</time>
      </trkpt>
      <trkpt lat="45.34903" lon="4.51543">
        <ele>1184</ele>
        <time>2018-07-26T07:56:36Z</time>
      </trkpt>
      <trkpt lat="45.34895" lon="4.51529">
        <ele>1184.96</ele>
        <time>2018-07-26T07:56:52Z</time>
      </trkpt>
      <trkpt lat="45.34888" lon="4.51506">
        <ele>1185.44</ele>
        <time>2018-07-26T07:57:09Z</time>
      </trkpt>
      <trkpt lat="45.34881" lon="4.51487">
        <ele>1186.4</ele>
        <time>2018-07-26T07:57:26Z</time>
      </trkpt>
      <trkpt lat="45.34871" lon="4.51476">
        <ele>1188.33</ele>
        <time>2018-07-26T07:57:43Z</time>
      </trkpt>
      <trkpt lat="45.34859" lon="4.51461">
        <ele>1190.25</ele>
        <time>2018-07-26T07:58:02Z</time>
      </trkpt>
      <trkpt lat="45.34848" lon="4.51445">
        <ele>1191.69</ele>
        <time>2018-07-26T07:58:20Z</time>
      </trkpt>
      <trkpt lat="45.3484" lon="4.51436">
        <ele>1192.17</ele>
        <time>2018-07-26T07:58:33Z</time>
      </trkpt>
      <trkpt lat="45.34835" lon="4.51425">
        <ele>1193.13</ele>
        <time>2018-07-26T07:58:45Z</time>
      </trkpt>
      <trkpt lat="45.34833" lon="4.51408">
        <ele>1193.61</ele>
        <time>2018-07-26T07:58:59Z</time>
      </trkpt>
      <trkpt lat="45.34826" lon="4.51388">
        <ele>1194.58</ele>
        <time>2018-07-26T07:59:14Z</time>
      </trkpt>
      <trkpt lat="45.34818" lon="4.51372">
        <ele>1195.54</ele>
        <time>2018-07-26T07:59:30Z</time>
      </trkpt>
      <trkpt lat="45.34808" lon="4.51355">
        <ele>1196.02</ele>
        <time>2018-07-26T07:59:49Z</time>
      </trkpt>
      <trkpt lat="45.34805" lon="4.51349">
        <ele>1195.54</ele>
        <time>2018-07-26T08:00:02Z</time>
      </trkpt>
      <trkpt lat="45.34794" lon="4.51342">
        <ele>1196.02</ele>
        <time>2018-07-26T08:00:15Z</time>
      </trkpt>
      <trkpt lat="45.34792" lon="4.51335">
        <ele>1196.5</ele>
        <time>2018-07-26T08:00:43Z</time>
      </trkpt>
      <trkpt lat="45.3479" lon="4.51339">
        <ele>1196.02</ele>
        <time>2018-07-26T08:01:11Z</time>
      </trkpt>
      <trkpt lat="45.34784" lon="4.51329">
        <ele>1196.98</ele>
        <time>2018-07-26T08:01:28Z</time>
      </trkpt>
      <trkpt lat="45.34766" lon="4.51301">
        <ele>1196.98</ele>
        <time>2018-07-26T08:01:51Z</time>
      </trkpt>
      <trkpt lat="45.34759" lon="4.51289">
        <ele>1196.98</ele>
        <time>2018-07-26T08:02:15Z</time>
      </trkpt>
      <trkpt lat="45.34747" lon="4.51275">
        <ele>1196.98</ele>
        <time>2018-07-26T08:02:38Z</time>
      </trkpt>
      <trkpt lat="45.34729" lon="4.51269">
        <ele>1196.98</ele>
        <time>2018-07-26T08:02:56Z</time>
      </trkpt>
      <trkpt lat="45.3472" lon="4.51255">
        <ele>1196.02</ele>
        <time>2018-07-26T08:03:12Z</time>
      </trkpt>
      <trkpt lat="45.34704" lon="4.51228">
        <ele>1195.54</ele>
        <time>2018-07-26T08:03:33Z</time>
      </trkpt>
      <trkpt lat="45.34701" lon="4.51208">
        <ele>1194.58</ele>
        <time>2018-07-26T08:03:44Z</time>
      </trkpt>
      <trkpt lat="45.34699" lon="4.51211">
        <ele>1194.09</ele>
        <time>2018-07-26T08:03:57Z</time>
      </trkpt>
      <trkpt lat="45.34694" lon="4.51213">
        <ele>1195.06</ele>
        <time>2018-07-26T08:04:10Z</time>
      </trkpt>
      <trkpt lat="45.34693" lon="4.51214">
        <ele>1195.06</ele>
        <time>2018-07-26T08:04:11Z</time>
      </trkpt>
      <trkpt lat="45.34682" lon="4.51222">
        <ele>1197.94</ele>
        <time>2018-07-26T08:04:29Z</time>
      </trkpt>
      <trkpt lat="45.34669" lon="4.51233">
        <ele>1200.82</ele>
        <time>2018-07-26T08:04:51Z</time>
      </trkpt>
      <trkpt lat="45.34659" lon="4.51247">
        <ele>1203.23</ele>
        <time>2018-07-26T08:05:11Z</time>
      </trkpt>
      <trkpt lat="45.34647" lon="4.51259">
        <ele>1205.15</ele>
        <time>2018-07-26T08:05:30Z</time>
      </trkpt>
      <trkpt lat="45.34635" lon="4.51261">
        <ele>1207.55</ele>
        <time>2018-07-26T08:05:49Z</time>
      </trkpt>
      <trkpt lat="45.34633" lon="4.51266">
        <ele>1207.55</ele>
        <time>2018-07-26T08:06:07Z</time>
      </trkpt>
      <trkpt lat="45.34634" lon="4.5127">
        <ele>1208.03</ele>
        <time>2018-07-26T08:06:27Z</time>
      </trkpt>
      <trkpt lat="45.34634" lon="4.5127">
        <ele>1208.51</ele>
        <time>2018-07-26T08:06:46Z</time>
      </trkpt>
      <trkpt lat="45.34631" lon="4.51268">
        <ele>1209</ele>
        <time>2018-07-26T08:06:49Z</time>
      </trkpt>
      <trkpt lat="45.34608" lon="4.51273">
        <ele>1209.96</ele>
        <time>2018-07-26T08:07:07Z</time>
      </trkpt>
      <trkpt lat="45.34607" lon="4.51288">
        <ele>1211.88</ele>
        <time>2018-07-26T08:07:25Z</time>
      </trkpt>
      <trkpt lat="45.34598" lon="4.51293">
        <ele>1213.32</ele>
        <time>2018-07-26T08:07:48Z</time>
      </trkpt>
      <trkpt lat="45.34587" lon="4.513">
        <ele>1215.24</ele>
        <time>2018-07-26T08:08:07Z</time>
      </trkpt>
      <trkpt lat="45.34575" lon="4.51315">
        <ele>1216.69</ele>
        <time>2018-07-26T08:08:28Z</time>
      </trkpt>
      <trkpt lat="45.3456" lon="4.51333">
        <ele>1218.61</ele>
        <time>2018-07-26T08:08:52Z</time>
      </trkpt>
      <trkpt lat="45.34556" lon="4.51359">
        <ele>1221.49</ele>
        <time>2018-07-26T08:09:13Z</time>
      </trkpt>
      <trkpt lat="45.34543" lon="4.51366">
        <ele>1223.9</ele>
        <time>2018-07-26T08:09:34Z</time>
      </trkpt>
      <trkpt lat="45.34534" lon="4.51382">
        <ele>1226.78</ele>
        <time>2018-07-26T08:10:00Z</time>
      </trkpt>
      <trkpt lat="45.34535" lon="4.5139">
        <ele>1228.22</ele>
        <time>2018-07-26T08:10:21Z</time>
      </trkpt>
      <trkpt lat="45.34536" lon="4.51397">
        <ele>1228.7</ele>
        <time>2018-07-26T08:10:48Z</time>
      </trkpt>
      <trkpt lat="45.34533" lon="4.51395">
        <ele>1229.66</ele>
        <time>2018-07-26T08:11:10Z</time>
      </trkpt>
      <trkpt lat="45.34526" lon="4.51409">
        <ele>1231.59</ele>
        <time>2018-07-26T08:11:29Z</time>
      </trkpt>
      <trkpt lat="45.34517" lon="4.51424">
        <ele>1233.51</ele>
        <time>2018-07-26T08:11:46Z</time>
      </trkpt>
      <trkpt lat="45.34507" lon="4.51431">
        <ele>1234.95</ele>
        <time>2018-07-26T08:11:56Z</time>
      </trkpt>
      <trkpt lat="45.34493" lon="4.51451">
        <ele>1236.39</ele>
        <time>2018-07-26T08:12:17Z</time>
      </trkpt>
      <trkpt lat="45.34489" lon="4.51458">
        <ele>1236.39</ele>
        <time>2018-07-26T08:12:35Z</time>
      </trkpt>
      <trkpt lat="45.34497" lon="4.51448">
        <ele>1237.83</ele>
        <time>2018-07-26T08:12:59Z</time>
      </trkpt>
      <trkpt lat="45.34492" lon="4.51447">
        <ele>1237.83</ele>
        <time>2018-07-26T08:13:26Z</time>
      </trkpt>
      <trkpt lat="45.34494" lon="4.5146">
        <ele>1237.83</ele>
        <time>2018-07-26T08:13:58Z</time>
      </trkpt>
      <trkpt lat="45.34491" lon="4.51473">
        <ele>1238.8</ele>
        <time>2018-07-26T08:14:17Z</time>
      </trkpt>
      <trkpt lat="45.34487" lon="4.51475">
        <ele>1239.28</ele>
        <time>2018-07-26T08:14:21Z</time>
      </trkpt>
      <trkpt lat="45.3448" lon="4.51494">
        <ele>1241.2</ele>
        <time>2018-07-26T08:14:40Z</time>
      </trkpt>
      <trkpt lat="45.34476" lon="4.51503">
        <ele>1242.16</ele>
        <time>2018-07-26T08:14:51Z</time>
      </trkpt>
      <trkpt lat="45.34477" lon="4.51526">
        <ele>1243.6</ele>
        <time>2018-07-26T08:15:11Z</time>
      </trkpt>
      <trkpt lat="45.34474" lon="4.51547">
        <ele>1245.53</ele>
        <time>2018-07-26T08:15:30Z</time>
      </trkpt>
      <trkpt lat="45.34469" lon="4.5155">
        <ele>1246.49</ele>
        <time>2018-07-26T08:15:38Z</time>
      </trkpt>
      <trkpt lat="45.34454" lon="4.51565">
        <ele>1248.41</ele>
        <time>2018-07-26T08:15:58Z</time>
      </trkpt>
      <trkpt lat="45.34444" lon="4.51577">
        <ele>1250.33</ele>
        <time>2018-07-26T08:16:19Z</time>
      </trkpt>
      <trkpt lat="45.34439" lon="4.51593">
        <ele>1252.25</ele>
        <time>2018-07-26T08:16:40Z</time>
      </trkpt>
      <trkpt lat="45.34437" lon="4.51598">
        <ele>1252.74</ele>
        <time>2018-07-26T08:17:03Z</time>
      </trkpt>
      <trkpt lat="45.34434" lon="4.51598">
        <ele>1253.22</ele>
        <time>2018-07-26T08:17:22Z</time>
      </trkpt>
      <trkpt lat="45.34428" lon="4.51595">
        <ele>1253.22</ele>
        <time>2018-07-26T08:17:41Z</time>
      </trkpt>
      <trkpt lat="45.34439" lon="4.5159">
        <ele>1253.22</ele>
        <time>2018-07-26T08:18:09Z</time>
      </trkpt>
      <trkpt lat="45.34443" lon="4.51599">
        <ele>1252.74</ele>
        <time>2018-07-26T08:18:36Z</time>
      </trkpt>
      <trkpt lat="45.34447" lon="4.5161">
        <ele>1254.66</ele>
        <time>2018-07-26T08:19:02Z</time>
      </trkpt>
      <trkpt lat="45.34426" lon="4.51618">
        <ele>1256.58</ele>
        <time>2018-07-26T08:19:25Z</time>
      </trkpt>
      <trkpt lat="45.34402" lon="4.51628">
        <ele>1258.5</ele>
        <time>2018-07-26T08:19:49Z</time>
      </trkpt>
      <trkpt lat="45.34395" lon="4.51638">
        <ele>1260.43</ele>
        <time>2018-07-26T08:20:12Z</time>
      </trkpt>
      <trkpt lat="45.34385" lon="4.51656">
        <ele>1262.35</ele>
        <time>2018-07-26T08:20:33Z</time>
      </trkpt>
      <trkpt lat="45.34377" lon="4.51671">
        <ele>1263.79</ele>
        <time>2018-07-26T08:20:55Z</time>
      </trkpt>
      <trkpt lat="45.3437" lon="4.51675">
        <ele>1263.79</ele>
        <time>2018-07-26T08:21:13Z</time>
      </trkpt>
      <trkpt lat="45.34364" lon="4.51677">
        <ele>1263.31</ele>
        <time>2018-07-26T08:21:42Z</time>
      </trkpt>
      <trkpt lat="45.3436" lon="4.51682">
        <ele>1263.31</ele>
        <time>2018-07-26T08:22:19Z</time>
      </trkpt>
      <trkpt lat="45.34359" lon="4.51674">
        <ele>1264.27</ele>
        <time>2018-07-26T08:22:51Z</time>
      </trkpt>
      <trkpt lat="45.3435" lon="4.51673">
        <ele>1263.79</ele>
        <time>2018-07-26T08:23:11Z</time>
      </trkpt>
      <trkpt lat="45.34346" lon="4.51679">
        <ele>1264.75</ele>
        <time>2018-07-26T08:23:36Z</time>
      </trkpt>
      <trkpt lat="45.34335" lon="4.5169">
        <ele>1265.23</ele>
        <time>2018-07-26T08:23:56Z</time>
      </trkpt>
      <trkpt lat="45.34322" lon="4.51707">
        <ele>1267.16</ele>
        <time>2018-07-26T08:24:18Z</time>
      </trkpt>
      <trkpt lat="45.34309" lon="4.51723">
        <ele>1267.64</ele>
        <time>2018-07-26T08:24:37Z</time>
      </trkpt>
      <trkpt lat="45.34295" lon="4.51739">
        <ele>1268.12</ele>
        <time>2018-07-26T08:24:57Z</time>
      </trkpt>
      <trkpt lat="45.3428" lon="4.51741">
        <ele>1268.6</ele>
        <time>2018-07-26T08:25:15Z</time>
      </trkpt>
      <trkpt lat="45.34264" lon="4.51749">
        <ele>1269.08</ele>
        <time>2018-07-26T08:25:33Z</time>
      </trkpt>
      <trkpt lat="45.34246" lon="4.51762">
        <ele>1269.08</ele>
        <time>2018-07-26T08:25:55Z</time>
      </trkpt>
      <trkpt lat="45.34238" lon="4.51788">
        <ele>1268.6</ele>
        <time>2018-07-26T08:26:17Z</time>
      </trkpt>
      <trkpt lat="45.34242" lon="4.51798">
        <ele>1268.6</ele>
        <time>2018-07-26T08:26:45Z</time>
      </trkpt>
      <trkpt lat="45.34245" lon="4.51793">
        <ele>1268.6</ele>
        <time>2018-07-26T08:27:09Z</time>
      </trkpt>
      <trkpt lat="45.34254" lon="4.51789">
        <ele>1268.6</ele>
        <time>2018-07-26T08:27:29Z</time>
      </trkpt>
      <trkpt lat="45.34257" lon="4.51793">
        <ele>1268.6</ele>
        <time>2018-07-26T08:27:59Z</time>
      </trkpt>
      <trkpt lat="45.34259" lon="4.518">
        <ele>1269.08</ele>
        <time>2018-07-26T08:28:21Z</time>
      </trkpt>
      <trkpt lat="45.34267" lon="4.51802">
        <ele>1269.08</ele>
        <time>2018-07-26T08:28:49Z</time>
      </trkpt>
      <trkpt lat="45.34257" lon="4.51813">
        <ele>1269.08</ele>
        <time>2018-07-26T08:29:07Z</time>
      </trkpt>
      <trkpt lat="45.34277" lon="4.51827">
        <ele>1270.04</ele>
        <time>2018-07-26T08:29:28Z</time>
      </trkpt>
      <trkpt lat="45.34292" lon="4.51846">
        <ele>1271.48</ele>
        <time>2018-07-26T08:29:50Z</time>
      </trkpt>
      <trkpt lat="45.3431" lon="4.5186">
        <ele>1272.92</ele>
        <time>2018-07-26T08:30:12Z</time>
      </trkpt>
      <trkpt lat="45.3433" lon="4.51875">
        <ele>1274.85</ele>
        <time>2018-07-26T08:30:39Z</time>
      </trkpt>
      <trkpt lat="45.34332" lon="4.51895">
        <ele>1276.29</ele>
        <time>2018-07-26T08:31:01Z</time>
      </trkpt>
      <trkpt lat="45.34342" lon="4.51916">
        <ele>1278.21</ele>
        <time>2018-07-26T08:31:26Z</time>
      </trkpt>
      <trkpt lat="45.34345" lon="4.51939">
        <ele>1280.13</ele>
        <time>2018-07-26T08:31:50Z</time>
      </trkpt>
      <trkpt lat="45.34347" lon="4.51968">
        <ele>1281.09</ele>
        <time>2018-07-26T08:32:14Z</time>
      </trkpt>
      <trkpt lat="45.34345" lon="4.51982">
        <ele>1282.54</ele>
        <time>2018-07-26T08:32:39Z</time>
      </trkpt>
      <trkpt lat="45.34349" lon="4.51986">
        <ele>1283.02</ele>
        <time>2018-07-26T08:33:00Z</time>
      </trkpt>
      <trkpt lat="45.34355" lon="4.52005">
        <ele>1283.98</ele>
        <time>2018-07-26T08:33:17Z</time>
      </trkpt>
      <trkpt lat="45.34361" lon="4.52037">
        <ele>1286.38</ele>
        <time>2018-07-26T08:33:41Z</time>
      </trkpt>
      <trkpt lat="45.3436" lon="4.52055">
        <ele>1287.34</ele>
        <time>2018-07-26T08:34:02Z</time>
      </trkpt>
      <trkpt lat="45.34374" lon="4.52084">
        <ele>1288.3</ele>
        <time>2018-07-26T08:34:25Z</time>
      </trkpt>
      <trkpt lat="45.34385" lon="4.52103">
        <ele>1290.23</ele>
        <time>2018-07-26T08:34:49Z</time>
      </trkpt>
      <trkpt lat="45.3439" lon="4.5213">
        <ele>1291.67</ele>
        <time>2018-07-26T08:35:12Z</time>
      </trkpt>
      <trkpt lat="45.34407" lon="4.52149">
        <ele>1292.15</ele>
        <time>2018-07-26T08:35:34Z</time>
      </trkpt>
      <trkpt lat="45.34421" lon="4.52172">
        <ele>1293.11</ele>
        <time>2018-07-26T08:36:00Z</time>
      </trkpt>
      <trkpt lat="45.34441" lon="4.52193">
        <ele>1294.07</ele>
        <time>2018-07-26T08:36:23Z</time>
      </trkpt>
      <trkpt lat="45.34456" lon="4.5221">
        <ele>1294.07</ele>
        <time>2018-07-26T08:36:46Z</time>
      </trkpt>
      <trkpt lat="45.3447" lon="4.52233">
        <ele>1293.59</ele>
        <time>2018-07-26T08:37:10Z</time>
      </trkpt>
      <trkpt lat="45.34476" lon="4.52261">
        <ele>1294.07</ele>
        <time>2018-07-26T08:37:32Z</time>
      </trkpt>
      <trkpt lat="45.34476" lon="4.52287">
        <ele>1295.03</ele>
        <time>2018-07-26T08:37:52Z</time>
      </trkpt>
      <trkpt lat="45.34483" lon="4.52307">
        <ele>1295.51</ele>
        <time>2018-07-26T08:38:12Z</time>
      </trkpt>
      <trkpt lat="45.34481" lon="4.52329">
        <ele>1295.99</ele>
        <time>2018-07-26T08:38:35Z</time>
      </trkpt>
      <trkpt lat="45.34489" lon="4.52361">
        <ele>1295.99</ele>
        <time>2018-07-26T08:38:58Z</time>
      </trkpt>
      <trkpt lat="45.34502" lon="4.52394">
        <ele>1296.48</ele>
        <time>2018-07-26T08:39:21Z</time>
      </trkpt>
      <trkpt lat="45.34514" lon="4.52415">
        <ele>1295.51</ele>
        <time>2018-07-26T08:39:46Z</time>
      </trkpt>
      <trkpt lat="45.34519" lon="4.52431">
        <ele>1295.03</ele>
        <time>2018-07-26T08:40:04Z</time>
      </trkpt>
      <trkpt lat="45.34531" lon="4.52456">
        <ele>1294.07</ele>
        <time>2018-07-26T08:40:28Z</time>
      </trkpt>
      <trkpt lat="45.34548" lon="4.52489">
        <ele>1292.63</ele>
        <time>2018-07-26T08:40:52Z</time>
      </trkpt>
      <trkpt lat="45.34555" lon="4.52517">
        <ele>1291.67</ele>
        <time>2018-07-26T08:41:17Z</time>
      </trkpt>
      <trkpt lat="45.34573" lon="4.52533">
        <ele>1290.23</ele>
        <time>2018-07-26T08:41:38Z</time>
      </trkpt>
      <trkpt lat="45.34592" lon="4.52548">
        <ele>1288.3</ele>
        <time>2018-07-26T08:42:00Z</time>
      </trkpt>
      <trkpt lat="45.34608" lon="4.52554">
        <ele>1286.38</ele>
        <time>2018-07-26T08:42:23Z</time>
      </trkpt>
      <trkpt lat="45.3463" lon="4.52557">
        <ele>1284.46</ele>
        <time>2018-07-26T08:42:48Z</time>
      </trkpt>
      <trkpt lat="45.34651" lon="4.52561">
        <ele>1282.54</ele>
        <time>2018-07-26T08:43:12Z</time>
      </trkpt>
      <trkpt lat="45.34672" lon="4.52564">
        <ele>1280.13</ele>
        <time>2018-07-26T08:43:36Z</time>
      </trkpt>
      <trkpt lat="45.34684" lon="4.52574">
        <ele>1278.69</ele>
        <time>2018-07-26T08:44:02Z</time>
      </trkpt>
      <trkpt lat="45.34713" lon="4.52594">
        <ele>1277.73</ele>
        <time>2018-07-26T08:44:24Z</time>
      </trkpt>
      <trkpt lat="45.34739" lon="4.52614">
        <ele>1277.25</ele>
        <time>2018-07-26T08:44:49Z</time>
      </trkpt>
      <trkpt lat="45.34754" lon="4.52622">
        <ele>1276.77</ele>
        <time>2018-07-26T08:45:10Z</time>
      </trkpt>
      <trkpt lat="45.34758" lon="4.52614">
        <ele>1277.25</ele>
        <time>2018-07-26T08:45:38Z</time>
      </trkpt>
      <trkpt lat="45.3476" lon="4.52613">
        <ele>1276.77</ele>
        <time>2018-07-26T08:45:57Z</time>
      </trkpt>
      <trkpt lat="45.34763" lon="4.52599">
        <ele>1276.77</ele>
        <time>2018-07-26T08:46:15Z</time>
      </trkpt>
      <trkpt lat="45.34766" lon="4.52586">
        <ele>1276.77</ele>
        <time>2018-07-26T08:46:46Z</time>
      </trkpt>
      <trkpt lat="45.34766" lon="4.52574">
        <ele>1275.81</ele>
        <time>2018-07-26T08:47:06Z</time>
      </trkpt>
      <trkpt lat="45.3477" lon="4.52555">
        <ele>1274.36</ele>
        <time>2018-07-26T08:47:24Z</time>
      </trkpt>
      <trkpt lat="45.34773" lon="4.52549">
        <ele>1274.36</ele>
        <time>2018-07-26T08:47:29Z</time>
      </trkpt>
      <trkpt lat="45.34781" lon="4.52527">
        <ele>1273.88</ele>
        <time>2018-07-26T08:47:46Z</time>
      </trkpt>
      <trkpt lat="45.34786" lon="4.52509">
        <ele>1272.92</ele>
        <time>2018-07-26T08:48:00Z</time>
      </trkpt>
      <trkpt lat="45.34795" lon="4.52494">
        <ele>1272.44</ele>
        <time>2018-07-26T08:48:15Z</time>
      </trkpt>
      <trkpt lat="45.3481" lon="4.52482">
        <ele>1271.48</ele>
        <time>2018-07-26T08:48:31Z</time>
      </trkpt>
      <trkpt lat="45.34813" lon="4.52466">
        <ele>1270.52</ele>
        <time>2018-07-26T08:48:47Z</time>
      </trkpt>
      <trkpt lat="45.3482" lon="4.52442">
        <ele>1269.08</ele>
        <time>2018-07-26T08:49:05Z</time>
      </trkpt>
      <trkpt lat="45.34828" lon="4.5242">
        <ele>1268.12</ele>
        <time>2018-07-26T08:49:22Z</time>
      </trkpt>
      <trkpt lat="45.34831" lon="4.52414">
        <ele>1267.64</ele>
        <time>2018-07-26T08:49:27Z</time>
      </trkpt>
      <trkpt lat="45.34842" lon="4.52397">
        <ele>1266.19</ele>
        <time>2018-07-26T08:49:45Z</time>
      </trkpt>
      <trkpt lat="45.34853" lon="4.52383">
        <ele>1265.71</ele>
        <time>2018-07-26T08:50:02Z</time>
      </trkpt>
      <trkpt lat="45.34866" lon="4.52368">
        <ele>1264.75</ele>
        <time>2018-07-26T08:50:18Z</time>
      </trkpt>
      <trkpt lat="45.34879" lon="4.52359">
        <ele>1264.27</ele>
        <time>2018-07-26T08:50:34Z</time>
      </trkpt>
      <trkpt lat="45.34893" lon="4.52357">
        <ele>1264.27</ele>
        <time>2018-07-26T08:50:51Z</time>
      </trkpt>
      <trkpt lat="45.34909" lon="4.5235">
        <ele>1265.23</ele>
        <time>2018-07-26T08:51:09Z</time>
      </trkpt>
      <trkpt lat="45.34911" lon="4.5235">
        <ele>1264.75</ele>
        <time>2018-07-26T08:51:11Z</time>
      </trkpt>
      <trkpt lat="45.34924" lon="4.52342">
        <ele>1264.75</ele>
        <time>2018-07-26T08:51:27Z</time>
      </trkpt>
      <trkpt lat="45.34946" lon="4.52334">
        <ele>1264.75</ele>
        <time>2018-07-26T08:51:48Z</time>
      </trkpt>
      <trkpt lat="45.3496" lon="4.52322">
        <ele>1265.23</ele>
        <time>2018-07-26T08:52:04Z</time>
      </trkpt>
      <trkpt lat="45.34975" lon="4.52308">
        <ele>1264.27</ele>
        <time>2018-07-26T08:52:19Z</time>
      </trkpt>
      <trkpt lat="45.34995" lon="4.52295">
        <ele>1264.75</ele>
        <time>2018-07-26T08:52:38Z</time>
      </trkpt>
      <trkpt lat="45.3501" lon="4.52293">
        <ele>1264.75</ele>
        <time>2018-07-26T08:52:57Z</time>
      </trkpt>
      <trkpt lat="45.35029" lon="4.52288">
        <ele>1265.71</ele>
        <time>2018-07-26T08:53:15Z</time>
      </trkpt>
      <trkpt lat="45.35047" lon="4.52292">
        <ele>1266.19</ele>
        <time>2018-07-26T08:53:34Z</time>
      </trkpt>
      <trkpt lat="45.35057" lon="4.52291">
        <ele>1266.19</ele>
        <time>2018-07-26T08:53:49Z</time>
      </trkpt>
      <trkpt lat="45.35056" lon="4.52286">
        <ele>1267.16</ele>
        <time>2018-07-26T08:54:13Z</time>
      </trkpt>
      <trkpt lat="45.35057" lon="4.52285">
        <ele>1267.16</ele>
        <time>2018-07-26T08:54:34Z</time>
      </trkpt>
      <trkpt lat="45.35059" lon="4.52282">
        <ele>1266.67</ele>
        <time>2018-07-26T08:54:59Z</time>
      </trkpt>
      <trkpt lat="45.35073" lon="4.52293">
        <ele>1267.64</ele>
        <time>2018-07-26T08:55:21Z</time>
      </trkpt>
      <trkpt lat="45.35096" lon="4.52294">
        <ele>1268.12</ele>
        <time>2018-07-26T08:55:45Z</time>
      </trkpt>
      <trkpt lat="45.3512" lon="4.52295">
        <ele>1268.6</ele>
        <time>2018-07-26T08:56:10Z</time>
      </trkpt>
      <trkpt lat="45.35144" lon="4.52306">
        <ele>1269.08</ele>
        <time>2018-07-26T08:56:33Z</time>
      </trkpt>
      <trkpt lat="45.35171" lon="4.52313">
        <ele>1270.04</ele>
        <time>2018-07-26T08:57:00Z</time>
      </trkpt>
      <trkpt lat="45.3519" lon="4.52314">
        <ele>1270.04</ele>
        <time>2018-07-26T08:57:23Z</time>
      </trkpt>
      <trkpt lat="45.35213" lon="4.52317">
        <ele>1270.04</ele>
        <time>2018-07-26T08:57:46Z</time>
      </trkpt>
      <trkpt lat="45.35231" lon="4.52321">
        <ele>1270.52</ele>
        <time>2018-07-26T08:58:06Z</time>
      </trkpt>
      <trkpt lat="45.35257" lon="4.52325">
        <ele>1270.52</ele>
        <time>2018-07-26T08:58:31Z</time>
      </trkpt>
      <trkpt lat="45.35279" lon="4.5233">
        <ele>1270.04</ele>
        <time>2018-07-26T08:58:53Z</time>
      </trkpt>
      <trkpt lat="45.353" lon="4.52333">
        <ele>1270.52</ele>
        <time>2018-07-26T08:59:18Z</time>
      </trkpt>
      <trkpt lat="45.35318" lon="4.5234">
        <ele>1270.52</ele>
        <time>2018-07-26T08:59:40Z</time>
      </trkpt>
      <trkpt lat="45.35341" lon="4.52343">
        <ele>1271</ele>
        <time>2018-07-26T09:00:02Z</time>
      </trkpt>
      <trkpt lat="45.35359" lon="4.52357">
        <ele>1271.96</ele>
        <time>2018-07-26T09:00:24Z</time>
      </trkpt>
      <trkpt lat="45.35379" lon="4.52359">
        <ele>1271.96</ele>
        <time>2018-07-26T09:00:49Z</time>
      </trkpt>
      <trkpt lat="45.35407" lon="4.52359">
        <ele>1271.96</ele>
        <time>2018-07-26T09:01:17Z</time>
      </trkpt>
      <trkpt lat="45.35429" lon="4.52359">
        <ele>1272.44</ele>
        <time>2018-07-26T09:01:40Z</time>
      </trkpt>
      <trkpt lat="45.35429" lon="4.52359">
        <ele>1272.44</ele>
        <time>2018-07-26T09:02:09Z</time>
      </trkpt>
      <trkpt lat="45.35435" lon="4.52353">
        <ele>1272.44</ele>
        <time>2018-07-26T09:02:36Z</time>
      </trkpt>
      <trkpt lat="45.3543" lon="4.52354">
        <ele>1272.92</ele>
        <time>2018-07-26T09:03:00Z</time>
      </trkpt>
      <trkpt lat="45.35429" lon="4.52354">
        <ele>1273.4</ele>
        <time>2018-07-26T09:03:30Z</time>
      </trkpt>
      <trkpt lat="45.35446" lon="4.5237">
        <ele>1272.92</ele>
        <time>2018-07-26T09:03:52Z</time>
      </trkpt>
      <trkpt lat="45.35468" lon="4.52373">
        <ele>1271.48</ele>
        <time>2018-07-26T09:04:14Z</time>
      </trkpt>
      <trkpt lat="45.35496" lon="4.5238">
        <ele>1269.56</ele>
        <time>2018-07-26T09:04:37Z</time>
      </trkpt>
      <trkpt lat="45.35519" lon="4.52382">
        <ele>1268.12</ele>
        <time>2018-07-26T09:05:02Z</time>
      </trkpt>
      <trkpt lat="45.35535" lon="4.5239">
        <ele>1266.67</ele>
        <time>2018-07-26T09:05:21Z</time>
      </trkpt>
      <trkpt lat="45.35552" lon="4.52399">
        <ele>1264.75</ele>
        <time>2018-07-26T09:05:41Z</time>
      </trkpt>
      <trkpt lat="45.3557" lon="4.52406">
        <ele>1262.35</ele>
        <time>2018-07-26T09:06:03Z</time>
      </trkpt>
      <trkpt lat="45.35572" lon="4.52408">
        <ele>1261.87</ele>
        <time>2018-07-26T09:06:25Z</time>
      </trkpt>
      <trkpt lat="45.35579" lon="4.5241">
        <ele>1262.35</ele>
        <time>2018-07-26T09:06:47Z</time>
      </trkpt>
      <trkpt lat="45.35595" lon="4.524">
        <ele>1259.94</ele>
        <time>2018-07-26T09:07:13Z</time>
      </trkpt>
      <trkpt lat="45.35607" lon="4.52398">
        <ele>1258.5</ele>
        <time>2018-07-26T09:07:37Z</time>
      </trkpt>
      <trkpt lat="45.35608" lon="4.52398">
        <ele>1258.98</ele>
        <time>2018-07-26T09:08:03Z</time>
      </trkpt>
      <trkpt lat="45.3561" lon="4.52403">
        <ele>1258.02</ele>
        <time>2018-07-26T09:08:29Z</time>
      </trkpt>
      <trkpt lat="45.35635" lon="4.52409">
        <ele>1255.62</ele>
        <time>2018-07-26T09:08:54Z</time>
      </trkpt>
      <trkpt lat="45.35657" lon="4.52418">
        <ele>1252.25</ele>
        <time>2018-07-26T09:09:19Z</time>
      </trkpt>
      <trkpt lat="45.35676" lon="4.52428">
        <ele>1250.81</ele>
        <time>2018-07-26T09:09:43Z</time>
      </trkpt>
      <trkpt lat="45.35703" lon="4.52433">
        <ele>1249.37</ele>
        <time>2018-07-26T09:10:11Z</time>
      </trkpt>
      <trkpt lat="45.35728" lon="4.52441">
        <ele>1248.41</ele>
        <time>2018-07-26T09:10:34Z</time>
      </trkpt>
      <trkpt lat="45.35742" lon="4.52446">
        <ele>1247.93</ele>
        <time>2018-07-26T09:10:57Z</time>
      </trkpt>
      <trkpt lat="45.35772" lon="4.52458">
        <ele>1246.49</ele>
        <time>2018-07-26T09:11:20Z</time>
      </trkpt>
      <trkpt lat="45.35793" lon="4.52454">
        <ele>1246.01</ele>
        <time>2018-07-26T09:11:42Z</time>
      </trkpt>
      <trkpt lat="45.35793" lon="4.52453">
        <ele>1246.01</ele>
        <time>2018-07-26T09:12:00Z</time>
      </trkpt>
      <trkpt lat="45.35809" lon="4.52463">
        <ele>1246.01</ele>
        <time>2018-07-26T09:12:23Z</time>
      </trkpt>
      <trkpt lat="45.35825" lon="4.52467">
        <ele>1246.01</ele>
        <time>2018-07-26T09:12:41Z</time>
      </trkpt>
      <trkpt lat="45.35839" lon="4.52468">
        <ele>1246.01</ele>
        <time>2018-07-26T09:13:01Z</time>
      </trkpt>
      <trkpt lat="45.35845" lon="4.52471">
        <ele>1246.01</ele>
        <time>2018-07-26T09:13:08Z</time>
      </trkpt>
      <trkpt lat="45.35863" lon="4.52476">
        <ele>1246.01</ele>
        <time>2018-07-26T09:13:26Z</time>
      </trkpt>
      <trkpt lat="45.35879" lon="4.52477">
        <ele>1246.01</ele>
        <time>2018-07-26T09:13:42Z</time>
      </trkpt>
      <trkpt lat="45.35896" lon="4.52488">
        <ele>1246.01</ele>
        <time>2018-07-26T09:14:04Z</time>
      </trkpt>
      <trkpt lat="45.3592" lon="4.52494">
        <ele>1245.53</ele>
        <time>2018-07-26T09:14:28Z</time>
      </trkpt>
      <trkpt lat="45.3594" lon="4.52497">
        <ele>1245.53</ele>
        <time>2018-07-26T09:14:50Z</time>
      </trkpt>
      <trkpt lat="45.35965" lon="4.52509">
        <ele>1245.53</ele>
        <time>2018-07-26T09:15:16Z</time>
      </trkpt>
      <trkpt lat="45.35979" lon="4.52509">
        <ele>1246.01</ele>
        <time>2018-07-26T09:15:39Z</time>
      </trkpt>
      <trkpt lat="45.35999" lon="4.52513">
        <ele>1246.49</ele>
        <time>2018-07-26T09:15:54Z</time>
      </trkpt>
      <trkpt lat="45.36006" lon="4.52514">
        <ele>1246.01</ele>
        <time>2018-07-26T09:16:02Z</time>
      </trkpt>
      <trkpt lat="45.36025" lon="4.52517">
        <ele>1246.97</ele>
        <time>2018-07-26T09:16:24Z</time>
      </trkpt>
      <trkpt lat="45.36035" lon="4.52516">
        <ele>1246.97</ele>
        <time>2018-07-26T09:16:46Z</time>
      </trkpt>
      <trkpt lat="45.36044" lon="4.52513">
        <ele>1246.97</ele>
        <time>2018-07-26T09:17:11Z</time>
      </trkpt>
      <trkpt lat="45.36047" lon="4.52518">
        <ele>1247.93</ele>
        <time>2018-07-26T09:17:30Z</time>
      </trkpt>
      <trkpt lat="45.36068" lon="4.52529">
        <ele>1247.45</ele>
        <time>2018-07-26T09:17:56Z</time>
      </trkpt>
      <trkpt lat="45.36085" lon="4.52538">
        <ele>1247.93</ele>
        <time>2018-07-26T09:18:20Z</time>
      </trkpt>
      <trkpt lat="45.36104" lon="4.52542">
        <ele>1247.45</ele>
        <time>2018-07-26T09:18:45Z</time>
      </trkpt>
      <trkpt lat="45.3613" lon="4.52551">
        <ele>1248.41</ele>
        <time>2018-07-26T09:19:12Z</time>
      </trkpt>
      <trkpt lat="45.36156" lon="4.52561">
        <ele>1247.93</ele>
        <time>2018-07-26T09:19:40Z</time>
      </trkpt>
      <trkpt lat="45.36175" lon="4.52552">
        <ele>1246.97</ele>
        <time>2018-07-26T09:20:05Z</time>
      </trkpt>
      <trkpt lat="45.36184" lon="4.52555">
        <ele>1247.45</ele>
        <time>2018-07-26T09:20:29Z</time>
      </trkpt>
      <trkpt lat="45.36202" lon="4.52563">
        <ele>1245.53</ele>
        <time>2018-07-26T09:20:54Z</time>
      </trkpt>
      <trkpt lat="45.36213" lon="4.52583">
        <ele>1247.45</ele>
        <time>2018-07-26T09:21:17Z</time>
      </trkpt>
      <trkpt lat="45.36211" lon="4.52593">
        <ele>1247.93</ele>
        <time>2018-07-26T09:21:44Z</time>
      </trkpt>
      <trkpt lat="45.3621" lon="4.52599">
        <ele>1248.41</ele>
        <time>2018-07-26T09:22:09Z</time>
      </trkpt>
      <trkpt lat="45.36203" lon="4.52602">
        <ele>1249.37</ele>
        <time>2018-07-26T09:22:40Z</time>
      </trkpt>
      <trkpt lat="45.36215" lon="4.5258">
        <ele>1248.89</ele>
        <time>2018-07-26T09:23:00Z</time>
      </trkpt>
      <trkpt lat="45.36209" lon="4.52576">
        <ele>1249.37</ele>
        <time>2018-07-26T09:23:29Z</time>
      </trkpt>
      <trkpt lat="45.36217" lon="4.52589">
        <ele>1249.37</ele>
        <time>2018-07-26T09:24:07Z</time>
      </trkpt>
      <trkpt lat="45.36223" lon="4.526">
        <ele>1249.37</ele>
        <time>2018-07-26T09:24:33Z</time>
      </trkpt>
      <trkpt lat="45.36223" lon="4.52591">
        <ele>1248.89</ele>
        <time>2018-07-26T09:25:00Z</time>
      </trkpt>
      <trkpt lat="45.36226" lon="4.52588">
        <ele>1249.37</ele>
        <time>2018-07-26T09:25:28Z</time>
      </trkpt>
      <trkpt lat="45.36222" lon="4.52587">
        <ele>1249.37</ele>
        <time>2018-07-26T09:25:55Z</time>
      </trkpt>
      <trkpt lat="45.36221" lon="4.52581">
        <ele>1249.37</ele>
        <time>2018-07-26T09:26:37Z</time>
      </trkpt>
      <trkpt lat="45.36227" lon="4.52578">
        <ele>1250.33</ele>
        <time>2018-07-26T09:27:13Z</time>
      </trkpt>
      <trkpt lat="45.36229" lon="4.52582">
        <ele>1249.85</ele>
        <time>2018-07-26T09:27:52Z</time>
      </trkpt>
      <trkpt lat="45.36219" lon="4.5258">
        <ele>1250.33</ele>
        <time>2018-07-26T09:28:27Z</time>
      </trkpt>
      <trkpt lat="45.36223" lon="4.52588">
        <ele>1250.81</ele>
        <time>2018-07-26T09:28:58Z</time>
      </trkpt>
      <trkpt lat="45.36224" lon="4.52594">
        <ele>1250.81</ele>
        <time>2018-07-26T09:29:24Z</time>
      </trkpt>
      <trkpt lat="45.36225" lon="4.52589">
        <ele>1250.81</ele>
        <time>2018-07-26T09:29:49Z</time>
      </trkpt>
      <trkpt lat="45.36225" lon="4.52593">
        <ele>1250.33</ele>
        <time>2018-07-26T09:30:15Z</time>
      </trkpt>
      <trkpt lat="45.3622" lon="4.52584">
        <ele>1249.85</ele>
        <time>2018-07-26T09:30:42Z</time>
      </trkpt>
      <trkpt lat="45.36217" lon="4.52595">
        <ele>1250.33</ele>
        <time>2018-07-26T09:31:03Z</time>
      </trkpt>
      <trkpt lat="45.36213" lon="4.52601">
        <ele>1249.85</ele>
        <time>2018-07-26T09:31:34Z</time>
      </trkpt>
      <trkpt lat="45.36222" lon="4.52591">
        <ele>1249.37</ele>
        <time>2018-07-26T09:32:17Z</time>
      </trkpt>
      <trkpt lat="45.36227" lon="4.52597">
        <ele>1249.37</ele>
        <time>2018-07-26T09:32:52Z</time>
      </trkpt>
      <trkpt lat="45.36226" lon="4.52589">
        <ele>1249.37</ele>
        <time>2018-07-26T09:33:30Z</time>
      </trkpt>
      <trkpt lat="45.36224" lon="4.5259">
        <ele>1249.37</ele>
        <time>2018-07-26T09:34:02Z</time>
      </trkpt>
      <trkpt lat="45.36221" lon="4.52593">
        <ele>1249.85</ele>
        <time>2018-07-26T09:34:31Z</time>
      </trkpt>
      <trkpt lat="45.36221" lon="4.52588">
        <ele>1249.85</ele>
        <time>2018-07-26T09:35:02Z</time>
      </trkpt>
      <trkpt lat="45.36221" lon="4.52587">
        <ele>1249.85</ele>
        <time>2018-07-26T09:35:29Z</time>
      </trkpt>
      <trkpt lat="45.36221" lon="4.52582">
        <ele>1249.85</ele>
        <time>2018-07-26T09:35:52Z</time>
      </trkpt>
      <trkpt lat="45.36225" lon="4.52586">
        <ele>1249.85</ele>
        <time>2018-07-26T09:36:21Z</time>
      </trkpt>
      <trkpt lat="45.36208" lon="4.52571">
        <ele>1249.85</ele>
        <time>2018-07-26T09:36:47Z</time>
      </trkpt>
      <trkpt lat="45.36208" lon="4.52573">
        <ele>1249.85</ele>
        <time>2018-07-26T09:37:15Z</time>
      </trkpt>
      <trkpt lat="45.36227" lon="4.52585">
        <ele>1250.33</ele>
        <time>2018-07-26T09:37:45Z</time>
      </trkpt>
      <trkpt lat="45.36228" lon="4.52576">
        <ele>1249.85</ele>
        <time>2018-07-26T09:38:04Z</time>
      </trkpt>
      <trkpt lat="45.36218" lon="4.5258">
        <ele>1249.85</ele>
        <time>2018-07-26T09:38:34Z</time>
      </trkpt>
      <trkpt lat="45.36221" lon="4.52582">
        <ele>1250.81</ele>
        <time>2018-07-26T09:39:02Z</time>
      </trkpt>
      <trkpt lat="45.36231" lon="4.52591">
        <ele>1250.81</ele>
        <time>2018-07-26T09:39:32Z</time>
      </trkpt>
      <trkpt lat="45.36211" lon="4.52571">
        <ele>1251.29</ele>
        <time>2018-07-26T09:40:01Z</time>
      </trkpt>
      <trkpt lat="45.36218" lon="4.52573">
        <ele>1251.29</ele>
        <time>2018-07-26T09:40:31Z</time>
      </trkpt>
      <trkpt lat="45.36215" lon="4.52575">
        <ele>1251.29</ele>
        <time>2018-07-26T09:40:54Z</time>
      </trkpt>
      <trkpt lat="45.36212" lon="4.52567">
        <ele>1251.77</ele>
        <time>2018-07-26T09:41:31Z</time>
      </trkpt>
      <trkpt lat="45.3622" lon="4.52568">
        <ele>1251.29</ele>
        <time>2018-07-26T09:41:59Z</time>
      </trkpt>
      <trkpt lat="45.36225" lon="4.5258">
        <ele>1251.29</ele>
        <time>2018-07-26T09:42:25Z</time>
      </trkpt>
      <trkpt lat="45.36224" lon="4.52592">
        <ele>1252.25</ele>
        <time>2018-07-26T09:42:49Z</time>
      </trkpt>
      <trkpt lat="45.36223" lon="4.526">
        <ele>1251.29</ele>
        <time>2018-07-26T09:43:12Z</time>
      </trkpt>
      <trkpt lat="45.36223" lon="4.52602">
        <ele>1251.77</ele>
        <time>2018-07-26T09:43:43Z</time>
      </trkpt>
      <trkpt lat="45.36218" lon="4.5259">
        <ele>1251.77</ele>
        <time>2018-07-26T09:44:04Z</time>
      </trkpt>
      <trkpt lat="45.36215" lon="4.52577">
        <ele>1251.77</ele>
        <time>2018-07-26T09:44:39Z</time>
      </trkpt>
      <trkpt lat="45.36223" lon="4.52582">
        <ele>1252.25</ele>
        <time>2018-07-26T09:45:15Z</time>
      </trkpt>
      <trkpt lat="45.36223" lon="4.52583">
        <ele>1251.77</ele>
        <time>2018-07-26T09:45:49Z</time>
      </trkpt>
      <trkpt lat="45.36216" lon="4.52579">
        <ele>1251.77</ele>
        <time>2018-07-26T09:46:21Z</time>
      </trkpt>
      <trkpt lat="45.36215" lon="4.52578">
        <ele>1251.77</ele>
        <time>2018-07-26T09:46:51Z</time>
      </trkpt>
      <trkpt lat="45.36217" lon="4.52589">
        <ele>1252.25</ele>
        <time>2018-07-26T09:47:13Z</time>
      </trkpt>
      <trkpt lat="45.36219" lon="4.52582">
        <ele>1251.77</ele>
        <time>2018-07-26T09:47:41Z</time>
      </trkpt>
      <trkpt lat="45.3622" lon="4.52585">
        <ele>1252.25</ele>
        <time>2018-07-26T09:48:08Z</time>
      </trkpt>
      <trkpt lat="45.36219" lon="4.52586">
        <ele>1252.74</ele>
        <time>2018-07-26T09:48:33Z</time>
      </trkpt>
      <trkpt lat="45.36222" lon="4.52579">
        <ele>1252.74</ele>
        <time>2018-07-26T09:49:01Z</time>
      </trkpt>
      <trkpt lat="45.36217" lon="4.52572">
        <ele>1252.74</ele>
        <time>2018-07-26T09:49:33Z</time>
      </trkpt>
      <trkpt lat="45.36213" lon="4.52579">
        <ele>1252.74</ele>
        <time>2018-07-26T09:49:56Z</time>
      </trkpt>
      <trkpt lat="45.36216" lon="4.52578">
        <ele>1252.74</ele>
        <time>2018-07-26T09:50:27Z</time>
      </trkpt>
      <trkpt lat="45.36214" lon="4.52605">
        <ele>1252.74</ele>
        <time>2018-07-26T09:50:52Z</time>
      </trkpt>
      <trkpt lat="45.36219" lon="4.52596">
        <ele>1252.74</ele>
        <time>2018-07-26T09:51:24Z</time>
      </trkpt>
      <trkpt lat="45.36222" lon="4.52585">
        <ele>1252.74</ele>
        <time>2018-07-26T09:51:53Z</time>
      </trkpt>
      <trkpt lat="45.36221" lon="4.52573">
        <ele>1252.74</ele>
        <time>2018-07-26T09:52:27Z</time>
      </trkpt>
      <trkpt lat="45.36221" lon="4.52572">
        <ele>1253.22</ele>
        <time>2018-07-26T09:52:55Z</time>
      </trkpt>
      <trkpt lat="45.36216" lon="4.52585">
        <ele>1254.18</ele>
        <time>2018-07-26T09:53:23Z</time>
      </trkpt>
      <trkpt lat="45.3622" lon="4.52566">
        <ele>1253.7</ele>
        <time>2018-07-26T09:53:46Z</time>
      </trkpt>
      <trkpt lat="45.36216" lon="4.52561">
        <ele>1254.18</ele>
        <time>2018-07-26T09:54:07Z</time>
      </trkpt>
      <trkpt lat="45.36208" lon="4.52589">
        <ele>1254.66</ele>
        <time>2018-07-26T09:54:30Z</time>
      </trkpt>
      <trkpt lat="45.36217" lon="4.52583">
        <ele>1255.14</ele>
        <time>2018-07-26T09:54:58Z</time>
      </trkpt>
      <trkpt lat="45.36214" lon="4.52583">
        <ele>1254.66</ele>
        <time>2018-07-26T09:55:21Z</time>
      </trkpt>
      <trkpt lat="45.36216" lon="4.52595">
        <ele>1254.66</ele>
        <time>2018-07-26T09:55:55Z</time>
      </trkpt>
      <trkpt lat="45.36209" lon="4.52584">
        <ele>1255.14</ele>
        <time>2018-07-26T09:56:19Z</time>
      </trkpt>
      <trkpt lat="45.36212" lon="4.52593">
        <ele>1255.62</ele>
        <time>2018-07-26T09:56:46Z</time>
      </trkpt>
      <trkpt lat="45.36217" lon="4.52611">
        <ele>1255.14</ele>
        <time>2018-07-26T09:57:15Z</time>
      </trkpt>
      <trkpt lat="45.36214" lon="4.52593">
        <ele>1254.66</ele>
        <time>2018-07-26T09:57:46Z</time>
      </trkpt>
      <trkpt lat="45.3621" lon="4.52602">
        <ele>1254.66</ele>
        <time>2018-07-26T09:58:15Z</time>
      </trkpt>
      <trkpt lat="45.36226" lon="4.52589">
        <ele>1254.18</ele>
        <time>2018-07-26T09:58:39Z</time>
      </trkpt>
      <trkpt lat="45.36224" lon="4.52592">
        <ele>1254.18</ele>
        <time>2018-07-26T09:58:59Z</time>
      </trkpt>
      <trkpt lat="45.36219" lon="4.52575">
        <ele>1254.18</ele>
        <time>2018-07-26T09:59:24Z</time>
      </trkpt>
      <trkpt lat="45.36224" lon="4.52589">
        <ele>1255.14</ele>
        <time>2018-07-26T09:59:47Z</time>
      </trkpt>
      <trkpt lat="45.36222" lon="4.5259">
        <ele>1253.7</ele>
        <time>2018-07-26T09:59:50Z</time>
      </trkpt>
      <trkpt lat="45.36212" lon="4.52591">
        <ele>1253.7</ele>
        <time>2018-07-26T10:00:16Z</time>
      </trkpt>
      <trkpt lat="45.36216" lon="4.52572">
        <ele>1253.22</ele>
        <time>2018-07-26T10:00:43Z</time>
      </trkpt>
      <trkpt lat="45.36206" lon="4.52589">
        <ele>1254.18</ele>
        <time>2018-07-26T10:01:03Z</time>
      </trkpt>
      <trkpt lat="45.36199" lon="4.52593">
        <ele>1254.18</ele>
        <time>2018-07-26T10:01:29Z</time>
      </trkpt>
      <trkpt lat="45.36217" lon="4.52595">
        <ele>1253.7</ele>
        <time>2018-07-26T10:01:52Z</time>
      </trkpt>
      <trkpt lat="45.36207" lon="4.52593">
        <ele>1253.22</ele>
        <time>2018-07-26T10:02:18Z</time>
      </trkpt>
      <trkpt lat="45.36203" lon="4.52605">
        <ele>1253.7</ele>
        <time>2018-07-26T10:02:44Z</time>
      </trkpt>
      <trkpt lat="45.36211" lon="4.52585">
        <ele>1253.22</ele>
        <time>2018-07-26T10:03:09Z</time>
      </trkpt>
      <trkpt lat="45.3622" lon="4.52592">
        <ele>1253.22</ele>
        <time>2018-07-26T10:03:35Z</time>
      </trkpt>
      <trkpt lat="45.36212" lon="4.52604">
        <ele>1253.7</ele>
        <time>2018-07-26T10:04:03Z</time>
      </trkpt>
      <trkpt lat="45.36226" lon="4.52578">
        <ele>1251.77</ele>
        <time>2018-07-26T10:04:25Z</time>
      </trkpt>
      <trkpt lat="45.36252" lon="4.52581">
        <ele>1249.37</ele>
        <time>2018-07-26T10:04:53Z</time>
      </trkpt>
      <trkpt lat="45.36261" lon="4.52587">
        <ele>1248.41</ele>
        <time>2018-07-26T10:05:18Z</time>
      </trkpt>
      <trkpt lat="45.36289" lon="4.52595">
        <ele>1246.49</ele>
        <time>2018-07-26T10:05:44Z</time>
      </trkpt>
      <trkpt lat="45.36307" lon="4.52598">
        <ele>1245.04</ele>
        <time>2018-07-26T10:06:07Z</time>
      </trkpt>
      <trkpt lat="45.36322" lon="4.52605">
        <ele>1243.6</ele>
        <time>2018-07-26T10:06:33Z</time>
      </trkpt>
      <trkpt lat="45.36344" lon="4.52607">
        <ele>1241.2</ele>
        <time>2018-07-26T10:06:57Z</time>
      </trkpt>
      <trkpt lat="45.36361" lon="4.52606">
        <ele>1240.72</ele>
        <time>2018-07-26T10:07:21Z</time>
      </trkpt>
      <trkpt lat="45.36378" lon="4.52611">
        <ele>1241.2</ele>
        <time>2018-07-26T10:07:44Z</time>
      </trkpt>
      <trkpt lat="45.36401" lon="4.52623">
        <ele>1242.16</ele>
        <time>2018-07-26T10:08:09Z</time>
      </trkpt>
      <trkpt lat="45.36419" lon="4.52629">
        <ele>1242.64</ele>
        <time>2018-07-26T10:08:33Z</time>
      </trkpt>
      <trkpt lat="45.36441" lon="4.52636">
        <ele>1243.6</ele>
        <time>2018-07-26T10:08:57Z</time>
      </trkpt>
      <trkpt lat="45.3646" lon="4.5265">
        <ele>1244.08</ele>
        <time>2018-07-26T10:09:22Z</time>
      </trkpt>
      <trkpt lat="45.36491" lon="4.52641">
        <ele>1243.12</ele>
        <time>2018-07-26T10:09:45Z</time>
      </trkpt>
      <trkpt lat="45.3651" lon="4.52639">
        <ele>1241.68</ele>
        <time>2018-07-26T10:10:08Z</time>
      </trkpt>
      <trkpt lat="45.36531" lon="4.52644">
        <ele>1238.8</ele>
        <time>2018-07-26T10:10:32Z</time>
      </trkpt>
      <trkpt lat="45.36549" lon="4.52664">
        <ele>1236.39</ele>
        <time>2018-07-26T10:10:57Z</time>
      </trkpt>
      <trkpt lat="45.36562" lon="4.52686">
        <ele>1233.99</ele>
        <time>2018-07-26T10:11:20Z</time>
      </trkpt>
      <trkpt lat="45.36578" lon="4.52701">
        <ele>1230.62</ele>
        <time>2018-07-26T10:11:44Z</time>
      </trkpt>
      <trkpt lat="45.36598" lon="4.5271">
        <ele>1227.74</ele>
        <time>2018-07-26T10:12:08Z</time>
      </trkpt>
      <trkpt lat="45.3662" lon="4.5272">
        <ele>1224.86</ele>
        <time>2018-07-26T10:12:31Z</time>
      </trkpt>
      <trkpt lat="45.36645" lon="4.52728">
        <ele>1222.93</ele>
        <time>2018-07-26T10:12:55Z</time>
      </trkpt>
      <trkpt lat="45.36662" lon="4.5274">
        <ele>1220.53</ele>
        <time>2018-07-26T10:13:18Z</time>
      </trkpt>
      <trkpt lat="45.36685" lon="4.52754">
        <ele>1219.09</ele>
        <time>2018-07-26T10:13:41Z</time>
      </trkpt>
      <trkpt lat="45.36708" lon="4.52764">
        <ele>1217.65</ele>
        <time>2018-07-26T10:14:05Z</time>
      </trkpt>
      <trkpt lat="45.36728" lon="4.52772">
        <ele>1215.72</ele>
        <time>2018-07-26T10:14:28Z</time>
      </trkpt>
      <trkpt lat="45.36745" lon="4.52783">
        <ele>1214.76</ele>
        <time>2018-07-26T10:14:49Z</time>
      </trkpt>
      <trkpt lat="45.36766" lon="4.52792">
        <ele>1213.8</ele>
        <time>2018-07-26T10:15:12Z</time>
      </trkpt>
      <trkpt lat="45.36782" lon="4.52796">
        <ele>1213.32</ele>
        <time>2018-07-26T10:15:31Z</time>
      </trkpt>
      <trkpt lat="45.36801" lon="4.52801">
        <ele>1212.84</ele>
        <time>2018-07-26T10:15:50Z</time>
      </trkpt>
      <trkpt lat="45.36812" lon="4.528">
        <ele>1213.32</ele>
        <time>2018-07-26T10:16:06Z</time>
      </trkpt>
      <trkpt lat="45.36817" lon="4.528">
        <ele>1211.4</ele>
        <time>2018-07-26T10:16:31Z</time>
      </trkpt>
      <trkpt lat="45.3681" lon="4.52804">
        <ele>1212.36</ele>
        <time>2018-07-26T10:16:50Z</time>
      </trkpt>
      <trkpt lat="45.3682" lon="4.52805">
        <ele>1211.88</ele>
        <time>2018-07-26T10:17:11Z</time>
      </trkpt>
      <trkpt lat="45.36823" lon="4.52789">
        <ele>1211.4</ele>
        <time>2018-07-26T10:17:27Z</time>
      </trkpt>
      <trkpt lat="45.36822" lon="4.52783">
        <ele>1211.88</ele>
        <time>2018-07-26T10:17:46Z</time>
      </trkpt>
      <trkpt lat="45.36822" lon="4.52782">
        <ele>1211.4</ele>
        <time>2018-07-26T10:18:17Z</time>
      </trkpt>
      <trkpt lat="45.36824" lon="4.52782">
        <ele>1211.4</ele>
        <time>2018-07-26T10:18:33Z</time>
      </trkpt>
      <trkpt lat="45.36822" lon="4.52784">
        <ele>1210.92</ele>
        <time>2018-07-26T10:18:53Z</time>
      </trkpt>
      <trkpt lat="45.3682" lon="4.52783">
        <ele>1210.44</ele>
        <time>2018-07-26T10:19:14Z</time>
      </trkpt>
      <trkpt lat="45.36822" lon="4.52782">
        <ele>1210.44</ele>
        <time>2018-07-26T10:19:42Z</time>
      </trkpt>
      <trkpt lat="45.36819" lon="4.5278">
        <ele>1210.44</ele>
        <time>2018-07-26T10:20:11Z</time>
      </trkpt>
      <trkpt lat="45.3682" lon="4.52783">
        <ele>1210.44</ele>
        <time>2018-07-26T10:20:44Z</time>
      </trkpt>
    </trkseg>
  </trk>
</gpx>